PWSweather.com
Personal Weather Stations
Station Observations
WHAKATANE1
Whakatane, WhakataneNZ

WhakataneWhakataneNZ

Lat: -37.960954, Lon: 176.9768

Elevation: 10

Station Type: Lacrosse

Latest ConditionsUpdated 11:29:00 AM GMT+12:12 Sunday, Oct 26, 2014
Currently Today's Max Today's Min Today's Average
Temperature 62.2°F16.8°C 64.2°F17.9°C 37.6°F3.1°C 48.2°F9.0°C
Dew Point 42.3°F5.7°C 48.0°F8.9°C 37.3°F2.9°C 41.7°F5.4°C
Winds 8.5 mph NE13.7 kmh NE 10.4 mph N16.7 kmh N - 4.4 mph 7.1 kmh
Wind Gusts 13.0 mph20.9 kmh 13.6 mph21.9 kmh - -
Humidity 48% 99% 45% 81%
Pressure 29.47 in998.0 mb 29.60 in1002.4 mb 29.47 in998.0 mb -
Hour Temp Dew Point Humidity Winds Wind Gusts Pressure Precip Precip Rate Daily Precip Total
11:29 AM 62.2°F16.8°C 42.3°F5.7°C 48% 8.5 mph NE13.7 kmh NE 13.0 mph20.9 kmh 29.47 in998.0 mb 0.00 in0.0 mm 0.00 in/hr0.0 mm/hr 0.00 in0.0 mm
11:28 AM 62.4°F16.9°C 42.5°F5.8°C 48% 8.0 mph NE12.9 kmh NE 13.0 mph20.9 kmh 29.47 in998.0 mb 0.00 in0.0 mm 0.00 in/hr0.0 mm/hr 0.00 in0.0 mm
11:27 AM 62.4°F16.9°C 43.0°F6.1°C 49% 8.2 mph NE13.2 kmh NE 13.0 mph20.9 kmh 29.47 in998.0 mb 0.00 in0.0 mm 0.00 in/hr0.0 mm/hr 0.00 in0.0 mm
11:26 AM 62.6°F17.0°C 43.2°F6.2°C 49% 8.3 mph NE13.4 kmh NE 13.0 mph20.9 kmh 29.47 in998.0 mb 0.00 in0.0 mm 0.00 in/hr0.0 mm/hr 0.00 in0.0 mm
11:25 AM 62.6°F17.0°C 43.2°F6.2°C 49% 8.3 mph NE13.4 kmh NE 13.0 mph20.9 kmh 29.47 in998.0 mb 0.00 in0.0 mm 0.00 in/hr0.0 mm/hr 0.00 in0.0 mm
11:24 AM 62.8°F17.1°C 43.4°F6.3°C 49% 8.3 mph NE13.4 kmh NE 13.0 mph20.9 kmh 29.47 in998.0 mb 0.00 in0.0 mm 0.00 in/hr0.0 mm/hr 0.00 in0.0 mm
11:23 AM 62.8°F17.1°C 43.4°F6.3°C 49% 7.8 mph NNE12.6 kmh NNE 13.0 mph20.9 kmh 29.48 in998.3 mb 0.00 in0.0 mm 0.00 in/hr0.0 mm/hr 0.00 in0.0 mm
11:22 AM 62.8°F17.1°C 43.4°F6.3°C 49% 7.4 mph NNE11.9 kmh NNE 13.0 mph20.9 kmh 29.47 in998.0 mb 0.00 in0.0 mm 0.00 in/hr0.0 mm/hr 0.00 in0.0 mm
11:21 AM 62.8°F17.1°C 42.8°F6.0°C 48% 6.7 mph N10.8 kmh N 9.8 mph15.8 kmh 29.48 in998.3 mb 0.00 in0.0 mm 0.00 in/hr0.0 mm/hr 0.00 in0.0 mm
11:20 AM 62.8°F17.1°C 42.8°F6.0°C 48% 6.5 mph N10.5 kmh N 8.3 mph13.4 kmh 29.48 in998.3 mb 0.00 in0.0 mm 0.00 in/hr0.0 mm/hr 0.00 in0.0 mm
11:19 AM 62.8°F17.1°C 42.3°F5.7°C 47% 6.5 mph N10.5 kmh N 8.3 mph13.4 kmh 29.48 in998.3 mb 0.00 in0.0 mm 0.00 in/hr0.0 mm/hr 0.00 in0.0 mm
11:18 AM 62.8°F17.1°C 42.8°F6.0°C 48% 6.8 mph N10.9 kmh N 9.8 mph15.8 kmh 29.48 in998.3 mb 0.00 in0.0 mm 0.00 in/hr0.0 mm/hr 0.00 in0.0 mm
11:17 AM 63.0°F17.2°C 43.0°F6.1°C 48% 7.1 mph N11.4 kmh N 10.7 mph17.2 kmh 29.48 in998.3 mb 0.00 in0.0 mm 0.00 in/hr0.0 mm/hr 0.00 in0.0 mm
11:16 AM 63.0°F17.2°C 43.0°F6.1°C 48% 7.1 mph N11.4 kmh N 10.7 mph17.2 kmh 29.48 in998.3 mb 0.00 in0.0 mm 0.00 in/hr0.0 mm/hr 0.00 in0.0 mm
11:15 AM 62.8°F17.1°C 42.8°F6.0°C 48% 7.0 mph N11.3 kmh N 10.7 mph17.2 kmh 29.48 in998.3 mb 0.00 in0.0 mm 0.00 in/hr0.0 mm/hr 0.00 in0.0 mm
11:14 AM 62.8°F17.1°C 42.8°F6.0°C 48% 7.2 mph N11.6 kmh N 10.7 mph17.2 kmh 29.48 in998.3 mb 0.00 in0.0 mm 0.00 in/hr0.0 mm/hr 0.00 in0.0 mm
11:13 AM 62.8°F17.1°C 42.8°F6.0°C 48% 7.3 mph N11.7 kmh N 10.7 mph17.2 kmh 29.48 in998.3 mb 0.00 in0.0 mm 0.00 in/hr0.0 mm/hr 0.00 in0.0 mm
11:12 AM 62.8°F17.1°C 42.8°F6.0°C 48% 7.3 mph N11.7 kmh N 10.7 mph17.2 kmh 29.48 in998.3 mb 0.00 in0.0 mm 0.00 in/hr0.0 mm/hr 0.00 in0.0 mm
11:11 AM 62.8°F17.1°C 42.3°F5.7°C 47% 7.5 mph N12.1 kmh N 10.7 mph17.2 kmh 29.48 in998.3 mb 0.00 in0.0 mm 0.00 in/hr0.0 mm/hr 0.00 in0.0 mm
11:10 AM 63.0°F17.2°C 42.4°F5.8°C 47% 7.9 mph N12.7 kmh N 10.7 mph17.2 kmh 29.48 in998.3 mb 0.00 in0.0 mm 0.00 in/hr0.0 mm/hr 0.00 in0.0 mm
11:09 AM 63.0°F17.2°C 42.4°F5.8°C 47% 8.2 mph N13.2 kmh N 10.7 mph17.2 kmh 29.48 in998.3 mb 0.00 in0.0 mm 0.00 in/hr0.0 mm/hr 0.00 in0.0 mm
11:08 AM 63.0°F17.2°C 42.4°F5.8°C 47% 8.4 mph N13.5 kmh N 10.7 mph17.2 kmh 29.48 in998.3 mb 0.00 in0.0 mm 0.00 in/hr0.0 mm/hr 0.00 in0.0 mm
11:07 AM 63.0°F17.2°C 42.4°F5.8°C 47% 8.1 mph NNW13.0 kmh NNW 10.7 mph17.2 kmh 29.48 in998.3 mb 0.00 in0.0 mm 0.00 in/hr0.0 mm/hr 0.00 in0.0 mm
11:06 AM 63.1°F17.3°C 42.0°F5.6°C 46% 8.0 mph NNW12.9 kmh NNW 10.7 mph17.2 kmh 29.48 in998.3 mb 0.00 in0.0 mm 0.00 in/hr0.0 mm/hr 0.00 in0.0 mm
11:05 AM 63.1°F17.3°C 42.0°F5.6°C 46% 7.9 mph NNW12.7 kmh NNW 10.7 mph17.2 kmh 29.48 in998.3 mb 0.00 in0.0 mm 0.00 in/hr0.0 mm/hr 0.00 in0.0 mm
11:04 AM 63.3°F17.4°C 42.2°F5.7°C 46% 7.7 mph NNW12.4 kmh NNW 10.7 mph17.2 kmh 29.49 in998.6 mb 0.00 in0.0 mm 0.00 in/hr0.0 mm/hr 0.00 in0.0 mm
11:03 AM 63.3°F17.4°C 42.2°F5.7°C 46% 7.7 mph NNW12.4 kmh NNW 10.7 mph17.2 kmh 29.48 in998.3 mb 0.00 in0.0 mm 0.00 in/hr0.0 mm/hr 0.00 in0.0 mm
11:02 AM 63.7°F17.6°C 42.0°F5.6°C 45% 7.9 mph NNW12.7 kmh NNW 10.7 mph17.2 kmh 29.49 in998.6 mb 0.00 in0.0 mm 0.00 in/hr0.0 mm/hr 0.00 in0.0 mm
11:01 AM 63.7°F17.6°C 42.5°F5.8°C 46% 8.0 mph NNW12.9 kmh NNW 10.7 mph17.2 kmh 29.48 in998.3 mb 0.00 in0.0 mm 0.00 in/hr0.0 mm/hr 0.00 in0.0 mm
11:00 AM 63.9°F17.7°C 43.3°F6.3°C 47% 7.7 mph NNW12.4 kmh NNW 10.7 mph17.2 kmh 29.48 in998.3 mb 0.00 in0.0 mm 0.00 in/hr0.0 mm/hr 0.00 in0.0 mm
10:59 AM 63.9°F17.7°C 43.3°F6.3°C 47% 7.6 mph NW12.2 kmh NW 9.2 mph14.8 kmh 29.48 in998.3 mb 0.00 in0.0 mm 0.00 in/hr0.0 mm/hr 0.00 in0.0 mm
10:58 AM 64.0°F17.8°C 43.4°F6.3°C 47% 7.3 mph NNW11.7 kmh NNW 9.2 mph14.8 kmh 29.48 in998.3 mb 0.00 in0.0 mm 0.00 in/hr0.0 mm/hr 0.00 in0.0 mm
10:57 AM 63.9°F17.7°C 43.3°F6.3°C 47% 7.3 mph NNW11.7 kmh NNW 9.2 mph14.8 kmh 29.49 in998.6 mb 0.00 in0.0 mm 0.00 in/hr0.0 mm/hr 0.00 in0.0 mm
10:56 AM 63.9°F17.7°C 43.3°F6.3°C 47% 7.7 mph N12.4 kmh N 10.7 mph17.2 kmh 29.49 in998.6 mb 0.00 in0.0 mm 0.00 in/hr0.0 mm/hr 0.00 in0.0 mm
10:55 AM 63.9°F17.7°C 43.3°F6.3°C 47% 7.9 mph N12.7 kmh N 11.4 mph18.3 kmh 29.49 in998.6 mb 0.00 in0.0 mm 0.00 in/hr0.0 mm/hr 0.00 in0.0 mm
10:54 AM 63.9°F17.7°C 43.3°F6.3°C 47% 8.3 mph N13.4 kmh N 13.0 mph20.9 kmh 29.49 in998.6 mb 0.00 in0.0 mm 0.00 in/hr0.0 mm/hr 0.00 in0.0 mm
10:53 AM 63.9°F17.7°C 43.3°F6.3°C 47% 8.8 mph N14.2 kmh N 13.0 mph20.9 kmh 29.49 in998.6 mb 0.00 in0.0 mm 0.00 in/hr0.0 mm/hr 0.00 in0.0 mm
10:52 AM 63.9°F17.7°C 43.8°F6.6°C 48% 8.7 mph N14.0 kmh N 13.0 mph20.9 kmh 29.49 in998.6 mb 0.00 in0.0 mm 0.00 in/hr0.0 mm/hr 0.00 in0.0 mm
10:51 AM 63.9°F17.7°C 43.8°F6.6°C 48% 8.5 mph N13.7 kmh N 13.0 mph20.9 kmh 29.49 in998.6 mb 0.00 in0.0 mm 0.00 in/hr0.0 mm/hr 0.00 in0.0 mm
10:50 AM 63.5°F17.5°C 43.5°F6.4°C 48% 8.7 mph N14.0 kmh N 13.0 mph20.9 kmh 29.49 in998.6 mb 0.00 in0.0 mm 0.00 in/hr0.0 mm/hr 0.00 in0.0 mm
10:49 AM 63.5°F17.5°C 43.5°F6.4°C 48% 9.1 mph N14.6 kmh N 13.6 mph21.9 kmh 29.49 in998.6 mb 0.00 in0.0 mm 0.00 in/hr0.0 mm/hr 0.00 in0.0 mm
10:48 AM 63.3°F17.4°C 43.3°F6.3°C 48% 9.6 mph N15.4 kmh N 13.6 mph21.9 kmh 29.49 in998.6 mb 0.00 in0.0 mm 0.00 in/hr0.0 mm/hr 0.00 in0.0 mm
10:47 AM 63.3°F17.4°C 43.3°F6.3°C 48% 10.2 mph N16.4 kmh N 13.6 mph21.9 kmh 29.49 in998.6 mb 0.00 in0.0 mm 0.00 in/hr0.0 mm/hr 0.00 in0.0 mm
10:46 AM 63.3°F17.4°C 42.8°F6.0°C 47% 10.4 mph N16.7 kmh N 13.6 mph21.9 kmh 29.49 in998.6 mb 0.00 in0.0 mm 0.00 in/hr0.0 mm/hr 0.00 in0.0 mm
10:45 AM 63.1°F17.3°C 43.1°F6.2°C 48% 10.4 mph NNW16.7 kmh NNW 13.6 mph21.9 kmh 29.50 in999.0 mb 0.00 in0.0 mm 0.00 in/hr0.0 mm/hr 0.00 in0.0 mm
10:44 AM 63.1°F17.3°C 43.1°F6.2°C 48% 10.0 mph NNW16.1 kmh NNW 13.6 mph21.9 kmh 29.49 in998.6 mb 0.00 in0.0 mm 0.00 in/hr0.0 mm/hr 0.00 in0.0 mm
10:43 AM 63.0°F17.2°C 43.0°F6.1°C 48% 10.0 mph NNW16.1 kmh NNW 13.6 mph21.9 kmh 29.49 in998.6 mb 0.00 in0.0 mm 0.00 in/hr0.0 mm/hr 0.00 in0.0 mm
10:42 AM 63.0°F17.2°C 42.4°F5.8°C 47% 10.0 mph NNW16.1 kmh NNW 13.6 mph21.9 kmh 29.49 in998.6 mb 0.00 in0.0 mm 0.00 in/hr0.0 mm/hr 0.00 in0.0 mm
10:41 AM 63.0°F17.2°C 41.9°F5.5°C 46% 10.0 mph NNW16.1 kmh NNW 13.6 mph21.9 kmh 29.49 in998.6 mb 0.00 in0.0 mm 0.00 in/hr0.0 mm/hr 0.00 in0.0 mm
10:40 AM 63.0°F17.2°C 41.9°F5.5°C 46% 9.8 mph NNW15.8 kmh NNW 13.6 mph21.9 kmh 29.49 in998.6 mb 0.00 in0.0 mm 0.00 in/hr0.0 mm/hr 0.00 in0.0 mm
10:39 AM 63.1°F17.3°C 42.0°F5.6°C 46% 9.5 mph NNW15.3 kmh NNW 13.6 mph21.9 kmh 29.49 in998.6 mb 0.00 in0.0 mm 0.00 in/hr0.0 mm/hr 0.00 in0.0 mm
10:38 AM 63.5°F17.5°C 42.4°F5.8°C 46% 9.3 mph NNW15.0 kmh NNW 13.6 mph21.9 kmh 29.50 in999.0 mb 0.00 in0.0 mm 0.00 in/hr0.0 mm/hr 0.00 in0.0 mm
10:37 AM 63.7°F17.6°C 42.5°F5.8°C 46% 8.9 mph NNW14.3 kmh NNW 13.0 mph20.9 kmh 29.49 in998.6 mb 0.00 in0.0 mm 0.00 in/hr0.0 mm/hr 0.00 in0.0 mm
10:36 AM 63.9°F17.7°C 43.3°F6.3°C 47% 8.1 mph NNW13.0 kmh NNW 12.1 mph19.5 kmh 29.50 in999.0 mb 0.00 in0.0 mm 0.00 in/hr0.0 mm/hr 0.00 in0.0 mm
10:35 AM 63.9°F17.7°C 43.3°F6.3°C 47% 7.9 mph NNW12.7 kmh NNW 12.1 mph19.5 kmh 29.50 in999.0 mb 0.00 in0.0 mm 0.00 in/hr0.0 mm/hr 0.00 in0.0 mm
10:34 AM 63.9°F17.7°C 43.3°F6.3°C 47% 7.8 mph N12.6 kmh N 12.1 mph19.5 kmh 29.50 in999.0 mb 0.00 in0.0 mm 0.00 in/hr0.0 mm/hr 0.00 in0.0 mm
10:33 AM 64.0°F17.8°C 43.4°F6.3°C 47% 7.5 mph N12.1 kmh N 9.8 mph15.8 kmh 29.50 in999.0 mb 0.00 in0.0 mm 0.00 in/hr0.0 mm/hr 0.00 in0.0 mm
10:32 AM 64.0°F17.8°C 43.4°F6.3°C 47% 7.8 mph NNW12.6 kmh NNW 9.8 mph15.8 kmh 29.50 in999.0 mb 0.00 in0.0 mm 0.00 in/hr0.0 mm/hr 0.00 in0.0 mm
10:31 AM 64.0°F17.8°C 43.4°F6.3°C 47% 7.6 mph NNW12.2 kmh NNW 9.8 mph15.8 kmh 29.50 in999.0 mb 0.00 in0.0 mm 0.00 in/hr0.0 mm/hr 0.00 in0.0 mm
10:30 AM 64.2°F17.9°C 43.6°F6.4°C 47% 7.5 mph N12.1 kmh N 9.8 mph15.8 kmh 29.50 in999.0 mb 0.00 in0.0 mm 0.00 in/hr0.0 mm/hr 0.00 in0.0 mm
10:29 AM 64.0°F17.8°C 43.4°F6.3°C 47% 7.3 mph NNW11.7 kmh NNW 9.8 mph15.8 kmh 29.50 in999.0 mb 0.00 in0.0 mm 0.00 in/hr0.0 mm/hr 0.00 in0.0 mm
10:28 AM 64.0°F17.8°C 44.0°F6.7°C 48% 6.8 mph N10.9 kmh N 9.8 mph15.8 kmh 29.50 in999.0 mb 0.00 in0.0 mm 0.00 in/hr0.0 mm/hr 0.00 in0.0 mm
10:27 AM 64.0°F17.8°C 44.0°F6.7°C 48% 6.8 mph N10.9 kmh N 9.8 mph15.8 kmh 29.50 in999.0 mb 0.00 in0.0 mm 0.00 in/hr0.0 mm/hr 0.00 in0.0 mm
10:26 AM 63.9°F17.7°C 43.8°F6.6°C 48% 7.1 mph N11.4 kmh N 9.8 mph15.8 kmh 29.50 in999.0 mb 0.00 in0.0 mm 0.00 in/hr0.0 mm/hr 0.00 in0.0 mm
10:25 AM 63.7°F17.6°C 43.6°F6.4°C 48% 7.0 mph N11.3 kmh N 9.8 mph15.8 kmh 29.50 in999.0 mb 0.00 in0.0 mm 0.00 in/hr0.0 mm/hr 0.00 in0.0 mm
10:24 AM 63.7°F17.6°C 43.6°F6.4°C 48% 7.0 mph N11.3 kmh N 9.8 mph15.8 kmh 29.50 in999.0 mb 0.00 in0.0 mm 0.00 in/hr0.0 mm/hr 0.00 in0.0 mm
10:23 AM 63.7°F17.6°C 43.6°F6.4°C 48% 6.8 mph N10.9 kmh N 9.8 mph15.8 kmh 29.50 in999.0 mb 0.00 in0.0 mm 0.00 in/hr0.0 mm/hr 0.00 in0.0 mm
10:22 AM 63.3°F17.4°C 44.4°F6.9°C 50% 6.5 mph N10.5 kmh N 9.8 mph15.8 kmh 29.50 in999.0 mb 0.00 in0.0 mm 0.00 in/hr0.0 mm/hr 0.00 in0.0 mm
10:21 AM 63.1°F17.3°C 44.2°F6.8°C 50% 6.8 mph N10.9 kmh N 9.8 mph15.8 kmh 29.50 in999.0 mb 0.00 in0.0 mm 0.00 in/hr0.0 mm/hr 0.00 in0.0 mm
10:20 AM 63.0°F17.2°C 44.0°F6.7°C 50% 6.7 mph N10.8 kmh N 9.8 mph15.8 kmh 29.50 in999.0 mb 0.00 in0.0 mm 0.00 in/hr0.0 mm/hr 0.00 in0.0 mm
10:19 AM 62.8°F17.1°C 43.9°F6.6°C 50% 7.0 mph N11.3 kmh N 9.8 mph15.8 kmh 29.50 in999.0 mb 0.00 in0.0 mm 0.00 in/hr0.0 mm/hr 0.00 in0.0 mm
10:18 AM 62.2°F16.8°C 43.4°F6.3°C 50% 7.3 mph N11.7 kmh N 9.8 mph15.8 kmh 29.51 in999.3 mb 0.00 in0.0 mm 0.00 in/hr0.0 mm/hr 0.00 in0.0 mm
10:17 AM 62.2°F16.8°C 43.4°F6.3°C 50% 7.3 mph N11.7 kmh N 9.8 mph15.8 kmh 29.51 in999.3 mb 0.00 in0.0 mm 0.00 in/hr0.0 mm/hr 0.00 in0.0 mm
10:16 AM 62.1°F16.7°C 43.2°F6.2°C 50% 7.5 mph N12.1 kmh N 9.8 mph15.8 kmh 29.51 in999.3 mb 0.00 in0.0 mm 0.00 in/hr0.0 mm/hr 0.00 in0.0 mm
10:15 AM 61.9°F16.6°C 43.1°F6.2°C 50% 7.7 mph N12.4 kmh N 9.8 mph15.8 kmh 29.50 in999.0 mb 0.00 in0.0 mm 0.00 in/hr0.0 mm/hr 0.00 in0.0 mm
10:14 AM 61.7°F16.5°C 42.9°F6.1°C 50% 7.8 mph N12.6 kmh N 9.8 mph15.8 kmh 29.51 in999.3 mb 0.00 in0.0 mm 0.00 in/hr0.0 mm/hr 0.00 in0.0 mm
10:13 AM 61.7°F16.5°C 42.4°F5.8°C 49% 7.9 mph N12.7 kmh N 9.8 mph15.8 kmh 29.51 in999.3 mb 0.00 in0.0 mm 0.00 in/hr0.0 mm/hr 0.00 in0.0 mm
10:12 AM 61.7°F16.5°C 42.4°F5.8°C 49% 7.7 mph N12.4 kmh N 9.8 mph15.8 kmh 29.50 in999.0 mb 0.00 in0.0 mm 0.00 in/hr0.0 mm/hr 0.00 in0.0 mm
10:11 AM 61.7°F16.5°C 42.4°F5.8°C 49% 7.5 mph N12.1 kmh N 9.8 mph15.8 kmh 29.50 in999.0 mb 0.00 in0.0 mm 0.00 in/hr0.0 mm/hr 0.00 in0.0 mm
10:10 AM 61.9°F16.6°C 42.5°F5.8°C 49% 7.9 mph N12.7 kmh N 12.1 mph19.5 kmh 29.51 in999.3 mb 0.00 in0.0 mm 0.00 in/hr0.0 mm/hr 0.00 in0.0 mm
10:09 AM 61.9°F16.6°C 42.5°F5.8°C 49% 7.9 mph N12.7 kmh N 12.1 mph19.5 kmh 29.51 in999.3 mb 0.00 in0.0 mm 0.00 in/hr0.0 mm/hr 0.00 in0.0 mm
10:08 AM 61.9°F16.6°C 42.5°F5.8°C 49% 7.8 mph N12.6 kmh N 12.1 mph19.5 kmh 29.51 in999.3 mb 0.00 in0.0 mm 0.00 in/hr0.0 mm/hr 0.00 in0.0 mm
10:07 AM 62.1°F16.7°C 42.7°F5.9°C 49% 7.8 mph N12.6 kmh N 12.1 mph19.5 kmh 29.51 in999.3 mb 0.00 in0.0 mm 0.00 in/hr0.0 mm/hr 0.00 in0.0 mm
10:06 AM 62.2°F16.8°C 42.9°F6.1°C 49% 7.6 mph N12.2 kmh N 12.1 mph19.5 kmh 29.51 in999.3 mb 0.00 in0.0 mm 0.00 in/hr0.0 mm/hr 0.00 in0.0 mm
10:05 AM 62.2°F16.8°C 43.4°F6.3°C 50% 7.2 mph N11.6 kmh N 12.1 mph19.5 kmh 29.51 in999.3 mb 0.00 in0.0 mm 0.00 in/hr0.0 mm/hr 0.00 in0.0 mm
10:04 AM 62.2°F16.8°C 42.9°F6.1°C 49% 7.0 mph NNE11.3 kmh NNE 12.1 mph19.5 kmh 29.51 in999.3 mb 0.00 in0.0 mm 0.00 in/hr0.0 mm/hr 0.00 in0.0 mm
10:03 AM 62.2°F16.8°C 43.4°F6.3°C 50% 7.2 mph NNE11.6 kmh NNE 12.1 mph19.5 kmh 29.51 in999.3 mb 0.00 in0.0 mm 0.00 in/hr0.0 mm/hr 0.00 in0.0 mm
10:02 AM 62.4°F16.9°C 43.0°F6.1°C 49% 7.7 mph N12.4 kmh N 12.1 mph19.5 kmh 29.52 in999.7 mb 0.00 in0.0 mm 0.00 in/hr0.0 mm/hr 0.00 in0.0 mm
10:01 AM 62.6°F17.0°C 43.7°F6.5°C 50% 8.0 mph NNE12.9 kmh NNE 12.1 mph19.5 kmh 29.51 in999.3 mb 0.00 in0.0 mm 0.00 in/hr0.0 mm/hr 0.00 in0.0 mm
10:00 AM 62.2°F16.8°C 43.9°F6.6°C 51% 7.8 mph NNE12.6 kmh NNE 12.1 mph19.5 kmh 29.52 in999.7 mb 0.00 in0.0 mm 0.00 in/hr0.0 mm/hr 0.00 in0.0 mm
09:59 AM 62.6°F17.0°C 44.2°F6.8°C 51% 7.5 mph NNE12.1 kmh NNE 10.7 mph17.2 kmh 29.51 in999.3 mb 0.00 in0.0 mm 0.00 in/hr0.0 mm/hr 0.00 in0.0 mm
09:58 AM 62.4°F16.9°C 44.6°F7.0°C 52% 7.3 mph N11.7 kmh N 10.7 mph17.2 kmh 29.51 in999.3 mb 0.00 in0.0 mm 0.00 in/hr0.0 mm/hr 0.00 in0.0 mm
09:57 AM 62.4°F16.9°C 44.6°F7.0°C 52% 6.9 mph N11.1 kmh N 10.7 mph17.2 kmh 29.51 in999.3 mb 0.00 in0.0 mm 0.00 in/hr0.0 mm/hr 0.00 in0.0 mm
09:56 AM 62.4°F16.9°C 44.6°F7.0°C 52% 6.9 mph N11.1 kmh N 10.7 mph17.2 kmh 29.52 in999.7 mb 0.00 in0.0 mm 0.00 in/hr0.0 mm/hr 0.00 in0.0 mm
09:55 AM 62.4°F16.9°C 44.6°F7.0°C 52% 7.1 mph N11.4 kmh N 10.7 mph17.2 kmh 29.51 in999.3 mb 0.00 in0.0 mm 0.00 in/hr0.0 mm/hr 0.00 in0.0 mm
09:54 AM 62.6°F17.0°C 44.7°F7.1°C 52% 7.3 mph N11.7 kmh N 10.7 mph17.2 kmh 29.52 in999.7 mb 0.00 in0.0 mm 0.00 in/hr0.0 mm/hr 0.00 in0.0 mm
09:53 AM 62.2°F16.8°C 44.4°F6.9°C 52% 7.0 mph N11.3 kmh N 10.7 mph17.2 kmh 29.52 in999.7 mb 0.00 in0.0 mm 0.00 in/hr0.0 mm/hr 0.00 in0.0 mm
09:52 AM 62.2°F16.8°C 44.4°F6.9°C 52% 6.6 mph N10.6 kmh N 10.7 mph17.2 kmh 29.52 in999.7 mb 0.00 in0.0 mm 0.00 in/hr0.0 mm/hr 0.00 in0.0 mm
09:51 AM 62.1°F16.7°C 44.7°F7.1°C 53% 6.2 mph N10.0 kmh N 10.7 mph17.2 kmh 29.52 in999.7 mb 0.00 in0.0 mm 0.00 in/hr0.0 mm/hr 0.00 in0.0 mm
09:50 AM 61.9°F16.6°C 44.6°F7.0°C 53% 6.0 mph N9.7 kmh N 9.8 mph15.8 kmh 29.52 in999.7 mb 0.00 in0.0 mm 0.00 in/hr0.0 mm/hr 0.00 in0.0 mm
09:49 AM 61.7°F16.5°C 44.4°F6.9°C 53% 6.2 mph N10.0 kmh N 9.8 mph15.8 kmh 29.52 in999.7 mb 0.00 in0.0 mm 0.00 in/hr0.0 mm/hr 0.00 in0.0 mm
09:48 AM 61.5°F16.4°C 44.7°F7.1°C 54% 6.3 mph N10.1 kmh N 9.8 mph15.8 kmh 29.52 in999.7 mb 0.00 in0.0 mm 0.00 in/hr0.0 mm/hr 0.00 in0.0 mm
09:47 AM 61.5°F16.4°C 44.7°F7.1°C 54% 6.7 mph N10.8 kmh N 13.0 mph20.9 kmh 29.52 in999.7 mb 0.00 in0.0 mm 0.00 in/hr0.0 mm/hr 0.00 in0.0 mm
09:46 AM 61.3°F16.3°C 45.0°F7.2°C 55% 7.0 mph N11.3 kmh N 13.0 mph20.9 kmh 29.52 in999.7 mb 0.00 in0.0 mm 0.00 in/hr0.0 mm/hr 0.00 in0.0 mm
09:45 AM 61.2°F16.2°C 44.9°F7.2°C 55% 7.0 mph N11.3 kmh N 13.0 mph20.9 kmh 29.52 in999.7 mb 0.00 in0.0 mm 0.00 in/hr0.0 mm/hr 0.00 in0.0 mm
09:44 AM 61.0°F16.1°C 44.7°F7.1°C 55% 6.8 mph N10.9 kmh N 13.0 mph20.9 kmh 29.52 in999.7 mb 0.00 in0.0 mm 0.00 in/hr0.0 mm/hr 0.00 in0.0 mm
09:43 AM 61.0°F16.1°C 44.7°F7.1°C 55% 7.0 mph N11.3 kmh N 13.0 mph20.9 kmh 29.52 in999.7 mb 0.00 in0.0 mm 0.00 in/hr0.0 mm/hr 0.00 in0.0 mm
09:42 AM 60.6°F15.9°C 43.9°F6.6°C 54% 7.2 mph N11.6 kmh N 13.0 mph20.9 kmh 29.52 in999.7 mb 0.00 in0.0 mm 0.00 in/hr0.0 mm/hr 0.00 in0.0 mm
09:41 AM 60.4°F15.8°C 43.7°F6.5°C 54% 7.1 mph N11.4 kmh N 13.0 mph20.9 kmh 29.52 in999.7 mb 0.00 in0.0 mm 0.00 in/hr0.0 mm/hr 0.00 in0.0 mm
09:40 AM 60.4°F15.8°C 43.7°F6.5°C 54% 7.2 mph N11.6 kmh N 13.0 mph20.9 kmh 29.52 in999.7 mb 0.00 in0.0 mm 0.00 in/hr0.0 mm/hr 0.00 in0.0 mm
09:39 AM 60.4°F15.8°C 43.7°F6.5°C 54% 7.3 mph N11.7 kmh N 13.0 mph20.9 kmh 29.52 in999.7 mb 0.00 in0.0 mm 0.00 in/hr0.0 mm/hr 0.00 in0.0 mm
09:38 AM 60.4°F15.8°C 43.7°F6.5°C 54% 7.2 mph N11.6 kmh N 13.0 mph20.9 kmh 29.52 in999.7 mb 0.00 in0.0 mm 0.00 in/hr0.0 mm/hr 0.00 in0.0 mm
09:37 AM 60.4°F15.8°C 44.2°F6.8°C 55% 7.1 mph N11.4 kmh N 13.0 mph20.9 kmh 29.52 in999.7 mb 0.00 in0.0 mm 0.00 in/hr0.0 mm/hr 0.00 in0.0 mm
09:36 AM 60.4°F15.8°C 43.7°F6.5°C 54% 6.7 mph N10.8 kmh N 10.7 mph17.2 kmh 29.52 in999.7 mb 0.00 in0.0 mm 0.00 in/hr0.0 mm/hr 0.00 in0.0 mm
09:35 AM 60.6°F15.9°C 43.9°F6.6°C 54% 6.7 mph N10.8 kmh N 10.7 mph17.2 kmh 29.52 in999.7 mb 0.00 in0.0 mm 0.00 in/hr0.0 mm/hr 0.00 in0.0 mm
09:34 AM 60.6°F15.9°C 43.9°F6.6°C 54% 7.0 mph N11.3 kmh N 10.7 mph17.2 kmh 29.52 in999.7 mb 0.00 in0.0 mm 0.00 in/hr0.0 mm/hr 0.00 in0.0 mm
09:33 AM 60.6°F15.9°C 43.9°F6.6°C 54% 7.2 mph N11.6 kmh N 10.7 mph17.2 kmh 29.52 in999.7 mb 0.00 in0.0 mm 0.00 in/hr0.0 mm/hr 0.00 in0.0 mm
09:32 AM 60.6°F15.9°C 43.9°F6.6°C 54% 7.4 mph N11.9 kmh N 10.7 mph17.2 kmh 29.52 in999.7 mb 0.00 in0.0 mm 0.00 in/hr0.0 mm/hr 0.00 in0.0 mm
09:31 AM 60.8°F16.0°C 44.1°F6.7°C 54% 7.8 mph N12.6 kmh N 10.7 mph17.2 kmh 29.52 in999.7 mb 0.00 in0.0 mm 0.00 in/hr0.0 mm/hr 0.00 in0.0 mm
09:30 AM 60.8°F16.0°C 44.1°F6.7°C 54% 7.6 mph N12.2 kmh N 10.7 mph17.2 kmh 29.52 in999.7 mb 0.00 in0.0 mm 0.00 in/hr0.0 mm/hr 0.00 in0.0 mm
09:29 AM 61.0°F16.1°C 43.7°F6.5°C 53% 7.4 mph N11.9 kmh N 10.7 mph17.2 kmh 29.52 in999.7 mb 0.00 in0.0 mm 0.00 in/hr0.0 mm/hr 0.00 in0.0 mm
09:28 AM 61.0°F16.1°C 43.7°F6.5°C 53% 7.4 mph N11.9 kmh N 10.7 mph17.2 kmh 29.52 in999.7 mb 0.00 in0.0 mm 0.00 in/hr0.0 mm/hr 0.00 in0.0 mm
09:27 AM 61.2°F16.2°C 43.9°F6.6°C 53% 7.3 mph N11.7 kmh N 10.7 mph17.2 kmh 29.53 in1000.0 mb 0.00 in0.0 mm 0.00 in/hr0.0 mm/hr 0.00 in0.0 mm
09:26 AM 61.3°F16.3°C 43.6°F6.4°C 52% 7.3 mph N11.7 kmh N 10.7 mph17.2 kmh 29.52 in999.7 mb 0.00 in0.0 mm 0.00 in/hr0.0 mm/hr 0.00 in0.0 mm
09:25 AM 61.5°F16.4°C 43.7°F6.5°C 52% 7.5 mph N12.1 kmh N 10.7 mph17.2 kmh 29.52 in999.7 mb 0.00 in0.0 mm 0.00 in/hr0.0 mm/hr 0.00 in0.0 mm
09:24 AM 61.5°F16.4°C 43.7°F6.5°C 52% 7.2 mph N11.6 kmh N 10.7 mph17.2 kmh 29.53 in1000.0 mb 0.00 in0.0 mm 0.00 in/hr0.0 mm/hr 0.00 in0.0 mm
09:23 AM 61.7°F16.5°C 43.9°F6.6°C 52% 6.7 mph N10.8 kmh N 10.7 mph17.2 kmh 29.52 in999.7 mb 0.00 in0.0 mm 0.00 in/hr0.0 mm/hr 0.00 in0.0 mm
09:22 AM 61.7°F16.5°C 45.4°F7.4°C 55% 6.5 mph N10.5 kmh N 10.7 mph17.2 kmh 29.53 in1000.0 mb 0.00 in0.0 mm 0.00 in/hr0.0 mm/hr 0.00 in0.0 mm
09:21 AM 61.7°F16.5°C 45.4°F7.4°C 55% 6.3 mph N10.1 kmh N 8.3 mph13.4 kmh 29.53 in1000.0 mb 0.00 in0.0 mm 0.00 in/hr0.0 mm/hr 0.00 in0.0 mm
09:20 AM 61.7°F16.5°C 45.4°F7.4°C 55% 6.3 mph N10.1 kmh N 8.3 mph13.4 kmh 29.53 in1000.0 mb 0.00 in0.0 mm 0.00 in/hr0.0 mm/hr 0.00 in0.0 mm
09:19 AM 61.7°F16.5°C 45.4°F7.4°C 55% 6.1 mph N9.8 kmh N 8.3 mph13.4 kmh 29.53 in1000.0 mb 0.00 in0.0 mm 0.00 in/hr0.0 mm/hr 0.00 in0.0 mm
09:18 AM 61.7°F16.5°C 45.9°F7.7°C 56% 6.1 mph N9.8 kmh N 8.3 mph13.4 kmh 29.53 in1000.0 mb 0.00 in0.0 mm 0.00 in/hr0.0 mm/hr 0.00 in0.0 mm
09:17 AM 61.7°F16.5°C 46.3°F7.9°C 57% 6.1 mph NNE9.8 kmh NNE 8.3 mph13.4 kmh 29.53 in1000.0 mb 0.00 in0.0 mm 0.00 in/hr0.0 mm/hr 0.00 in0.0 mm
09:16 AM 61.5°F16.4°C 46.2°F7.9°C 57% 6.1 mph NE9.8 kmh NE 8.3 mph13.4 kmh 29.53 in1000.0 mb 0.00 in0.0 mm 0.00 in/hr0.0 mm/hr 0.00 in0.0 mm
09:15 AM 61.5°F16.4°C 46.6°F8.1°C 58% 6.0 mph NE9.7 kmh NE 8.3 mph13.4 kmh 29.53 in1000.0 mb 0.00 in0.0 mm 0.00 in/hr0.0 mm/hr 0.00 in0.0 mm
09:14 AM 61.2°F16.2°C 46.7°F8.2°C 59% 6.0 mph NE9.7 kmh NE 8.3 mph13.4 kmh 29.53 in1000.0 mb 0.00 in0.0 mm 0.00 in/hr0.0 mm/hr 0.00 in0.0 mm
09:13 AM 61.0°F16.1°C 46.6°F8.1°C 59% 6.2 mph NE10.0 kmh NE 8.3 mph13.4 kmh 29.53 in1000.0 mb 0.00 in0.0 mm 0.00 in/hr0.0 mm/hr 0.00 in0.0 mm
09:12 AM 60.8°F16.0°C 46.8°F8.2°C 60% 6.0 mph NE9.7 kmh NE 8.3 mph13.4 kmh 29.53 in1000.0 mb 0.00 in0.0 mm 0.00 in/hr0.0 mm/hr 0.00 in0.0 mm
09:11 AM 60.4°F15.8°C 46.9°F8.3°C 61% 5.6 mph NE9.0 kmh NE 7.6 mph12.2 kmh 29.54 in1000.3 mb 0.00 in0.0 mm 0.00 in/hr0.0 mm/hr 0.00 in0.0 mm
09:10 AM 60.1°F15.6°C 46.6°F8.1°C 61% 5.4 mph NE8.7 kmh NE 7.6 mph12.2 kmh 29.54 in1000.3 mb 0.00 in0.0 mm 0.00 in/hr0.0 mm/hr 0.00 in0.0 mm
09:09 AM 59.9°F15.5°C 46.9°F8.3°C 62% 5.6 mph NE9.0 kmh NE 7.6 mph12.2 kmh 29.53 in1000.0 mb 0.00 in0.0 mm 0.00 in/hr0.0 mm/hr 0.00 in0.0 mm
09:08 AM 59.7°F15.4°C 46.7°F8.2°C 62% 5.7 mph NE9.2 kmh NE 7.6 mph12.2 kmh 29.53 in1000.0 mb 0.00 in0.0 mm 0.00 in/hr0.0 mm/hr 0.00 in0.0 mm
09:07 AM 59.4°F15.2°C 46.4°F8.0°C 62% 5.6 mph NE9.0 kmh NE 7.6 mph12.2 kmh 29.54 in1000.3 mb 0.00 in0.0 mm 0.00 in/hr0.0 mm/hr 0.00 in0.0 mm
09:06 AM 59.4°F15.2°C 46.4°F8.0°C 62% 5.4 mph NNE8.7 kmh NNE 7.6 mph12.2 kmh 29.53 in1000.0 mb 0.00 in0.0 mm 0.00 in/hr0.0 mm/hr 0.00 in0.0 mm
09:05 AM 59.2°F15.1°C 46.6°F8.1°C 63% 5.4 mph NE8.7 kmh NE 7.6 mph12.2 kmh 29.54 in1000.3 mb 0.00 in0.0 mm 0.00 in/hr0.0 mm/hr 0.00 in0.0 mm
09:04 AM 59.2°F15.1°C 46.6°F8.1°C 63% 5.3 mph NNE8.5 kmh NNE 7.6 mph12.2 kmh 29.54 in1000.3 mb 0.00 in0.0 mm 0.00 in/hr0.0 mm/hr 0.00 in0.0 mm
09:03 AM 59.0°F15.0°C 46.4°F8.0°C 63% 5.1 mph NNE8.2 kmh NNE 6.9 mph11.1 kmh 29.54 in1000.3 mb 0.00 in0.0 mm 0.00 in/hr0.0 mm/hr 0.00 in0.0 mm
09:02 AM 58.8°F14.9°C 46.7°F8.2°C 64% 5.0 mph NE8.0 kmh NE 6.9 mph11.1 kmh 29.53 in1000.0 mb 0.00 in0.0 mm 0.00 in/hr0.0 mm/hr 0.00 in0.0 mm
09:01 AM 58.8°F14.9°C 46.7°F8.2°C 64% 5.2 mph NE8.4 kmh NE 6.9 mph11.1 kmh 29.53 in1000.0 mb 0.00 in0.0 mm 0.00 in/hr0.0 mm/hr 0.00 in0.0 mm
09:00 AM 58.6°F14.8°C 46.5°F8.1°C 64% 5.4 mph NE8.7 kmh NE 6.9 mph11.1 kmh 29.53 in1000.0 mb 0.00 in0.0 mm 0.00 in/hr0.0 mm/hr 0.00 in0.0 mm
08:59 AM 58.5°F14.7°C 46.3°F7.9°C 64% 5.5 mph NE8.9 kmh NE 6.9 mph11.1 kmh 29.54 in1000.3 mb 0.00 in0.0 mm 0.00 in/hr0.0 mm/hr 0.00 in0.0 mm
08:58 AM 58.5°F14.7°C 46.8°F8.2°C 65% 5.4 mph NE8.7 kmh NE 6.9 mph11.1 kmh 29.54 in1000.3 mb 0.00 in0.0 mm 0.00 in/hr0.0 mm/hr 0.00 in0.0 mm
08:57 AM 58.3°F14.6°C 46.6°F8.1°C 65% 5.3 mph NE8.5 kmh NE 6.9 mph11.1 kmh 29.54 in1000.3 mb 0.00 in0.0 mm 0.00 in/hr0.0 mm/hr 0.00 in0.0 mm
08:56 AM 58.1°F14.5°C 46.4°F8.0°C 65% 5.2 mph NE8.4 kmh NE 6.9 mph11.1 kmh 29.54 in1000.3 mb 0.00 in0.0 mm 0.00 in/hr0.0 mm/hr 0.00 in0.0 mm
08:55 AM 57.9°F14.4°C 46.6°F8.1°C 66% 5.2 mph NE8.4 kmh NE 7.6 mph12.2 kmh 29.54 in1000.3 mb 0.00 in0.0 mm 0.00 in/hr0.0 mm/hr 0.00 in0.0 mm
08:54 AM 57.9°F14.4°C 46.6°F8.1°C 66% 5.4 mph NE8.7 kmh NE 7.6 mph12.2 kmh 29.54 in1000.3 mb 0.00 in0.0 mm 0.00 in/hr0.0 mm/hr 0.00 in0.0 mm
08:53 AM 57.7°F14.3°C 46.5°F8.1°C 66% 5.5 mph NE8.9 kmh NE 7.6 mph12.2 kmh 29.54 in1000.3 mb 0.00 in0.0 mm 0.00 in/hr0.0 mm/hr 0.00 in0.0 mm
08:52 AM 57.7°F14.3°C 46.5°F8.1°C 66% 5.4 mph NE8.7 kmh NE 7.6 mph12.2 kmh 29.54 in1000.3 mb 0.00 in0.0 mm 0.00 in/hr0.0 mm/hr 0.00 in0.0 mm
08:51 AM 57.6°F14.2°C 46.3°F7.9°C 66% 5.5 mph NE8.9 kmh NE 7.6 mph12.2 kmh 29.54 in1000.3 mb 0.00 in0.0 mm 0.00 in/hr0.0 mm/hr 0.00 in0.0 mm
08:50 AM 57.4°F14.1°C 46.1°F7.8°C 66% 5.4 mph NE8.7 kmh NE 7.6 mph12.2 kmh 29.54 in1000.3 mb 0.00 in0.0 mm 0.00 in/hr0.0 mm/hr 0.00 in0.0 mm
08:49 AM 57.2°F14.0°C 46.4°F8.0°C 67% 5.1 mph NE8.2 kmh NE 7.6 mph12.2 kmh 29.54 in1000.3 mb 0.00 in0.0 mm 0.00 in/hr0.0 mm/hr 0.00 in0.0 mm
08:48 AM 57.2°F14.0°C 46.4°F8.0°C 67% 4.8 mph NE7.7 kmh NE 7.6 mph12.2 kmh 29.55 in1000.7 mb 0.00 in0.0 mm 0.00 in/hr0.0 mm/hr 0.00 in0.0 mm
08:47 AM 57.0°F13.9°C 46.2°F7.9°C 67% 4.6 mph NE7.4 kmh NE 7.6 mph12.2 kmh 29.55 in1000.7 mb 0.00 in0.0 mm 0.00 in/hr0.0 mm/hr 0.00 in0.0 mm
08:46 AM 56.8°F13.8°C 46.0°F7.8°C 67% 4.6 mph NE7.4 kmh NE 7.6 mph12.2 kmh 29.54 in1000.3 mb 0.00 in0.0 mm 0.00 in/hr0.0 mm/hr 0.00 in0.0 mm
08:45 AM 56.8°F13.8°C 46.0°F7.8°C 67% 4.3 mph NE6.9 kmh NE 7.6 mph12.2 kmh 29.54 in1000.3 mb 0.00 in0.0 mm 0.00 in/hr0.0 mm/hr 0.00 in0.0 mm
08:44 AM 56.7°F13.7°C 46.2°F7.9°C 68% 4.0 mph NNE6.4 kmh NNE 7.6 mph12.2 kmh 29.54 in1000.3 mb 0.00 in0.0 mm 0.00 in/hr0.0 mm/hr 0.00 in0.0 mm
08:43 AM 56.5°F13.6°C 46.1°F7.8°C 68% 3.7 mph NNE6.0 kmh NNE 5.4 mph8.7 kmh 29.54 in1000.3 mb 0.00 in0.0 mm 0.00 in/hr0.0 mm/hr 0.00 in0.0 mm
08:42 AM 56.5°F13.6°C 46.1°F7.8°C 68% 3.5 mph N5.6 kmh N 5.4 mph8.7 kmh 29.54 in1000.3 mb 0.00 in0.0 mm 0.00 in/hr0.0 mm/hr 0.00 in0.0 mm
08:41 AM 56.3°F13.5°C 45.9°F7.7°C 68% 3.4 mph N5.5 kmh N 5.4 mph8.7 kmh 29.54 in1000.3 mb 0.00 in0.0 mm 0.00 in/hr0.0 mm/hr 0.00 in0.0 mm
08:40 AM 56.3°F13.5°C 46.3°F7.9°C 69% 3.4 mph N5.5 kmh N 5.4 mph8.7 kmh 29.54 in1000.3 mb 0.00 in0.0 mm 0.00 in/hr0.0 mm/hr 0.00 in0.0 mm
08:39 AM 56.1°F13.4°C 46.1°F7.8°C 69% 3.3 mph N5.3 kmh N 5.4 mph8.7 kmh 29.54 in1000.3 mb 0.00 in0.0 mm 0.00 in/hr0.0 mm/hr 0.00 in0.0 mm
08:38 AM 55.9°F13.3°C 45.9°F7.7°C 69% 3.3 mph N5.3 kmh N 5.4 mph8.7 kmh 29.54 in1000.3 mb 0.00 in0.0 mm 0.00 in/hr0.0 mm/hr 0.00 in0.0 mm
08:37 AM 55.9°F13.3°C 45.9°F7.7°C 69% 3.2 mph N5.1 kmh N 5.4 mph8.7 kmh 29.55 in1000.7 mb 0.00 in0.0 mm 0.00 in/hr0.0 mm/hr 0.00 in0.0 mm
08:36 AM 55.8°F13.2°C 45.8°F7.7°C 69% 3.1 mph N5.0 kmh N 5.4 mph8.7 kmh 29.55 in1000.7 mb 0.00 in0.0 mm 0.00 in/hr0.0 mm/hr 0.00 in0.0 mm
08:35 AM 55.6°F13.1°C 45.6°F7.6°C 69% 2.9 mph NNW4.7 kmh NNW 5.4 mph8.7 kmh 29.55 in1000.7 mb 0.00 in0.0 mm 0.00 in/hr0.0 mm/hr 0.00 in0.0 mm
08:34 AM 55.6°F13.1°C 45.6°F7.6°C 69% 2.7 mph NW4.3 kmh NW 5.4 mph8.7 kmh 29.54 in1000.3 mb 0.00 in0.0 mm 0.00 in/hr0.0 mm/hr 0.00 in0.0 mm
08:33 AM 55.6°F13.1°C 45.6°F7.6°C 69% 2.7 mph NW4.3 kmh NW 5.4 mph8.7 kmh 29.55 in1000.7 mb 0.00 in0.0 mm 0.00 in/hr0.0 mm/hr 0.00 in0.0 mm
08:32 AM 55.4°F13.0°C 45.4°F7.4°C 69% 2.8 mph WNW4.5 kmh WNW 5.4 mph8.7 kmh 29.55 in1000.7 mb 0.00 in0.0 mm 0.00 in/hr0.0 mm/hr 0.00 in0.0 mm
08:31 AM 55.4°F13.0°C 45.4°F7.4°C 69% 2.8 mph NW4.5 kmh NW 5.4 mph8.7 kmh 29.54 in1000.3 mb 0.00 in0.0 mm 0.00 in/hr0.0 mm/hr 0.00 in0.0 mm
08:30 AM 55.4°F13.0°C 45.4°F7.4°C 69% 2.6 mph WNW4.2 kmh WNW 3.8 mph6.1 kmh 29.55 in1000.7 mb 0.00 in0.0 mm 0.00 in/hr0.0 mm/hr 0.00 in0.0 mm
08:29 AM 55.4°F13.0°C 45.4°F7.4°C 69% 2.6 mph W4.2 kmh W 3.8 mph6.1 kmh 29.55 in1000.7 mb 0.00 in0.0 mm 0.00 in/hr0.0 mm/hr 0.00 in0.0 mm
08:28 AM 55.4°F13.0°C 45.4°F7.4°C 69% 2.6 mph W4.2 kmh W 3.8 mph6.1 kmh 29.55 in1000.7 mb 0.00 in0.0 mm 0.00 in/hr0.0 mm/hr 0.00 in0.0 mm
08:27 AM 55.4°F13.0°C 45.4°F7.4°C 69% 2.4 mph WSW3.9 kmh WSW 3.8 mph6.1 kmh 29.55 in1000.7 mb 0.00 in0.0 mm 0.00 in/hr0.0 mm/hr 0.00 in0.0 mm
08:26 AM 55.4°F13.0°C 45.8°F7.7°C 70% 2.3 mph W3.7 kmh W 3.8 mph6.1 kmh 29.55 in1000.7 mb 0.00 in0.0 mm 0.00 in/hr0.0 mm/hr 0.00 in0.0 mm
08:25 AM 55.4°F13.0°C 45.8°F7.7°C 70% 2.3 mph W3.7 kmh W 3.8 mph6.1 kmh 29.55 in1000.7 mb 0.00 in0.0 mm 0.00 in/hr0.0 mm/hr 0.00 in0.0 mm
08:24 AM 55.4°F13.0°C 45.8°F7.7°C 70% 2.5 mph WNW4.0 kmh WNW 3.8 mph6.1 kmh 29.55 in1000.7 mb 0.00 in0.0 mm 0.00 in/hr0.0 mm/hr 0.00 in0.0 mm
08:23 AM 55.4°F13.0°C 45.8°F7.7°C 70% 2.5 mph NW4.0 kmh NW 3.8 mph6.1 kmh 29.55 in1000.7 mb 0.00 in0.0 mm 0.00 in/hr0.0 mm/hr 0.00 in0.0 mm
08:22 AM 55.2°F12.9°C 45.6°F7.6°C 70% 2.5 mph NW4.0 kmh NW 3.1 mph5.0 kmh 29.55 in1000.7 mb 0.00 in0.0 mm 0.00 in/hr0.0 mm/hr 0.00 in0.0 mm
08:21 AM 55.2°F12.9°C 45.6°F7.6°C 70% 2.4 mph NW3.9 kmh NW 3.1 mph5.0 kmh 29.55 in1000.7 mb 0.00 in0.0 mm 0.00 in/hr0.0 mm/hr 0.00 in0.0 mm
08:20 AM 55.2°F12.9°C 45.6°F7.6°C 70% 2.2 mph WNW3.5 kmh WNW 3.1 mph5.0 kmh 29.55 in1000.7 mb 0.00 in0.0 mm 0.00 in/hr0.0 mm/hr 0.00 in0.0 mm
08:19 AM 55.2°F12.9°C 45.6°F7.6°C 70% 2.1 mph WNW3.4 kmh WNW 3.1 mph5.0 kmh 29.55 in1000.7 mb 0.00 in0.0 mm 0.00 in/hr0.0 mm/hr 0.00 in0.0 mm
08:18 AM 55.0°F12.8°C 45.4°F7.4°C 70% 2.1 mph WNW3.4 kmh WNW 3.1 mph5.0 kmh 29.55 in1000.7 mb 0.00 in0.0 mm 0.00 in/hr0.0 mm/hr 0.00 in0.0 mm
08:17 AM 55.0°F12.8°C 45.4°F7.4°C 70% 2.1 mph WNW3.4 kmh WNW 3.1 mph5.0 kmh 29.55 in1000.7 mb 0.00 in0.0 mm 0.00 in/hr0.0 mm/hr 0.00 in0.0 mm
08:16 AM 55.0°F12.8°C 45.8°F7.7°C 71% 2.4 mph NW3.9 kmh NW 3.8 mph6.1 kmh 29.55 in1000.7 mb 0.00 in0.0 mm 0.00 in/hr0.0 mm/hr 0.00 in0.0 mm
08:15 AM 55.0°F12.8°C 45.4°F7.4°C 70% 2.5 mph NW4.0 kmh NW 3.8 mph6.1 kmh 29.55 in1000.7 mb 0.00 in0.0 mm 0.00 in/hr0.0 mm/hr 0.00 in0.0 mm
08:14 AM 54.9°F12.7°C 45.3°F7.4°C 70% 2.5 mph NW4.0 kmh NW 3.8 mph6.1 kmh 29.55 in1000.7 mb 0.00 in0.0 mm 0.00 in/hr0.0 mm/hr 0.00 in0.0 mm
08:13 AM 54.9°F12.7°C 45.6°F7.6°C 71% 2.5 mph NW4.0 kmh NW 3.8 mph6.1 kmh 29.55 in1000.7 mb 0.00 in0.0 mm 0.00 in/hr0.0 mm/hr 0.00 in0.0 mm
08:12 AM 54.7°F12.6°C 45.1°F7.3°C 70% 2.3 mph NW3.7 kmh NW 3.8 mph6.1 kmh 29.55 in1000.7 mb 0.00 in0.0 mm 0.00 in/hr0.0 mm/hr 0.00 in0.0 mm
08:11 AM 54.7°F12.6°C 45.1°F7.3°C 70% 2.2 mph NNW3.5 kmh NNW 3.8 mph6.1 kmh 29.55 in1000.7 mb 0.00 in0.0 mm 0.00 in/hr0.0 mm/hr 0.00 in0.0 mm
08:10 AM 54.7°F12.6°C 45.1°F7.3°C 70% 2.4 mph N3.9 kmh N 3.8 mph6.1 kmh 29.55 in1000.7 mb 0.00 in0.0 mm 0.00 in/hr0.0 mm/hr 0.00 in0.0 mm
08:09 AM 54.5°F12.5°C 44.9°F7.2°C 70% 2.5 mph N4.0 kmh N 3.8 mph6.1 kmh 29.55 in1000.7 mb 0.00 in0.0 mm 0.00 in/hr0.0 mm/hr 0.00 in0.0 mm
08:08 AM 54.5°F12.5°C 44.9°F7.2°C 70% 2.8 mph N4.5 kmh N 4.5 mph7.2 kmh 29.55 in1000.7 mb 0.00 in0.0 mm 0.00 in/hr0.0 mm/hr 0.00 in0.0 mm
08:07 AM 54.5°F12.5°C 44.9°F7.2°C 70% 2.9 mph N4.7 kmh N 4.5 mph7.2 kmh 29.55 in1000.7 mb 0.00 in0.0 mm 0.00 in/hr0.0 mm/hr 0.00 in0.0 mm
08:06 AM 54.5°F12.5°C 44.9°F7.2°C 70% 2.8 mph N4.5 kmh N 4.5 mph7.2 kmh 29.55 in1000.7 mb 0.00 in0.0 mm 0.00 in/hr0.0 mm/hr 0.00 in0.0 mm
08:05 AM 54.5°F12.5°C 44.9°F7.2°C 70% 2.8 mph N4.5 kmh N 4.5 mph7.2 kmh 29.55 in1000.7 mb 0.00 in0.0 mm 0.00 in/hr0.0 mm/hr 0.00 in0.0 mm
08:04 AM 54.5°F12.5°C 44.9°F7.2°C 70% 2.9 mph N4.7 kmh N 4.5 mph7.2 kmh 29.55 in1000.7 mb 0.00 in0.0 mm 0.00 in/hr0.0 mm/hr 0.00 in0.0 mm
08:03 AM 54.5°F12.5°C 44.9°F7.2°C 70% 3.0 mph N4.8 kmh N 4.5 mph7.2 kmh 29.55 in1000.7 mb 0.00 in0.0 mm 0.00 in/hr0.0 mm/hr 0.00 in0.0 mm
08:02 AM 54.3°F12.4°C 44.8°F7.1°C 70% 3.1 mph N5.0 kmh N 4.5 mph7.2 kmh 29.55 in1000.7 mb 0.00 in0.0 mm 0.00 in/hr0.0 mm/hr 0.00 in0.0 mm
08:01 AM 54.3°F12.4°C 44.4°F6.9°C 69% 3.2 mph N5.1 kmh N 4.5 mph7.2 kmh 29.55 in1000.7 mb 0.00 in0.0 mm 0.00 in/hr0.0 mm/hr 0.00 in0.0 mm
08:00 AM 54.3°F12.4°C 44.4°F6.9°C 69% 3.4 mph N5.5 kmh N 4.5 mph7.2 kmh 29.55 in1000.7 mb 0.00 in0.0 mm 0.00 in/hr0.0 mm/hr 0.00 in0.0 mm
07:59 AM 54.3°F12.4°C 44.4°F6.9°C 69% 3.4 mph N5.5 kmh N 4.5 mph7.2 kmh 29.55 in1000.7 mb 0.00 in0.0 mm 0.00 in/hr0.0 mm/hr 0.00 in0.0 mm
07:58 AM 54.5°F12.5°C 44.5°F6.9°C 69% 3.2 mph N5.1 kmh N 4.5 mph7.2 kmh 29.55 in1000.7 mb 0.00 in0.0 mm 0.00 in/hr0.0 mm/hr 0.00 in0.0 mm
07:57 AM 54.5°F12.5°C 44.5°F6.9°C 69% 3.1 mph N5.0 kmh N 4.5 mph7.2 kmh 29.56 in1001.0 mb 0.00 in0.0 mm 0.00 in/hr0.0 mm/hr 0.00 in0.0 mm
07:56 AM 54.5°F12.5°C 44.5°F6.9°C 69% 3.1 mph N5.0 kmh N 4.5 mph7.2 kmh 29.55 in1000.7 mb 0.00 in0.0 mm 0.00 in/hr0.0 mm/hr 0.00 in0.0 mm
07:55 AM 54.7°F12.6°C 44.7°F7.1°C 69% 2.8 mph N4.5 kmh N 4.5 mph7.2 kmh 29.55 in1000.7 mb 0.00 in0.0 mm 0.00 in/hr0.0 mm/hr 0.00 in0.0 mm
07:54 AM 54.9°F12.7°C 44.9°F7.2°C 69% 2.7 mph N4.3 kmh N 4.5 mph7.2 kmh 29.56 in1001.0 mb 0.00 in0.0 mm 0.00 in/hr0.0 mm/hr 0.00 in0.0 mm
07:53 AM 54.9°F12.7°C 44.9°F7.2°C 69% 2.7 mph NNW4.3 kmh NNW 4.5 mph7.2 kmh 29.55 in1000.7 mb 0.00 in0.0 mm 0.00 in/hr0.0 mm/hr 0.00 in0.0 mm
07:52 AM 55.0°F12.8°C 45.1°F7.3°C 69% 2.6 mph NNW4.2 kmh NNW 4.5 mph7.2 kmh 29.55 in1000.7 mb 0.00 in0.0 mm 0.00 in/hr0.0 mm/hr 0.00 in0.0 mm
07:51 AM 55.0°F12.8°C 45.1°F7.3°C 69% 2.5 mph NNW4.0 kmh NNW 4.5 mph7.2 kmh 29.56 in1001.0 mb 0.00 in0.0 mm 0.00 in/hr0.0 mm/hr 0.00 in0.0 mm
07:50 AM 55.2°F12.9°C 45.2°F7.3°C 69% 2.3 mph NNW3.7 kmh NNW 3.8 mph6.1 kmh 29.55 in1000.7 mb 0.00 in0.0 mm 0.00 in/hr0.0 mm/hr 0.00 in0.0 mm
07:49 AM 55.2°F12.9°C 45.2°F7.3°C 69% 2.2 mph NNW3.5 kmh NNW 3.1 mph5.0 kmh 29.56 in1001.0 mb 0.00 in0.0 mm 0.00 in/hr0.0 mm/hr 0.00 in0.0 mm
07:48 AM 55.2°F12.9°C 45.2°F7.3°C 69% 2.3 mph NNW3.7 kmh NNW 3.1 mph5.0 kmh 29.55 in1000.7 mb 0.00 in0.0 mm 0.00 in/hr0.0 mm/hr 0.00 in0.0 mm
07:47 AM 55.4°F13.0°C 45.4°F7.4°C 69% 2.3 mph NNW3.7 kmh NNW 3.1 mph5.0 kmh 29.55 in1000.7 mb 0.00 in0.0 mm 0.00 in/hr0.0 mm/hr 0.00 in0.0 mm
07:46 AM 55.4°F13.0°C 45.8°F7.7°C 70% 2.2 mph NNW3.5 kmh NNW 3.1 mph5.0 kmh 29.56 in1001.0 mb 0.00 in0.0 mm 0.00 in/hr0.0 mm/hr 0.00 in0.0 mm
07:45 AM 55.6°F13.1°C 46.0°F7.8°C 70% 2.3 mph NNW3.7 kmh NNW 3.1 mph5.0 kmh 29.56 in1001.0 mb 0.00 in0.0 mm 0.00 in/hr0.0 mm/hr 0.00 in0.0 mm
07:44 AM 55.6°F13.1°C 46.0°F7.8°C 70% 2.4 mph NNW3.9 kmh NNW 3.1 mph5.0 kmh 29.56 in1001.0 mb 0.00 in0.0 mm 0.00 in/hr0.0 mm/hr 0.00 in0.0 mm
07:43 AM 55.8°F13.2°C 46.5°F8.1°C 71% 2.2 mph N3.5 kmh N 3.1 mph5.0 kmh 29.56 in1001.0 mb 0.00 in0.0 mm 0.00 in/hr0.0 mm/hr 0.00 in0.0 mm
07:42 AM 55.8°F13.2°C 46.5°F8.1°C 71% 2.1 mph N3.4 kmh N 3.1 mph5.0 kmh 29.55 in1000.7 mb 0.00 in0.0 mm 0.00 in/hr0.0 mm/hr 0.00 in0.0 mm
07:41 AM 55.8°F13.2°C 46.9°F8.3°C 72% 2.1 mph N3.4 kmh N 3.1 mph5.0 kmh 29.55 in1000.7 mb 0.00 in0.0 mm 0.00 in/hr0.0 mm/hr 0.00 in0.0 mm
07:40 AM 55.8°F13.2°C 46.9°F8.3°C 72% 2.1 mph N3.4 kmh N 3.1 mph5.0 kmh 29.55 in1000.7 mb 0.00 in0.0 mm 0.00 in/hr0.0 mm/hr 0.00 in0.0 mm
07:39 AM 55.8°F13.2°C 47.2°F8.4°C 73% 2.1 mph N3.4 kmh N 3.1 mph5.0 kmh 29.55 in1000.7 mb 0.00 in0.0 mm 0.00 in/hr0.0 mm/hr 0.00 in0.0 mm
07:38 AM 55.6°F13.1°C 47.4°F8.6°C 74% 2.1 mph NNW3.4 kmh NNW 3.1 mph5.0 kmh 29.55 in1000.7 mb 0.00 in0.0 mm 0.00 in/hr0.0 mm/hr 0.00 in0.0 mm
07:37 AM 55.6°F13.1°C 47.8°F8.8°C 75% 2.0 mph NNW3.2 kmh NNW 3.1 mph5.0 kmh 29.55 in1000.7 mb 0.00 in0.0 mm 0.00 in/hr0.0 mm/hr 0.00 in0.0 mm
07:36 AM 55.4°F13.0°C 48.0°F8.9°C 76% 2.1 mph NNW3.4 kmh NNW 3.1 mph5.0 kmh 29.55 in1000.7 mb 0.00 in0.0 mm 0.00 in/hr0.0 mm/hr 0.00 in0.0 mm
07:35 AM 55.2°F12.9°C 47.8°F8.8°C 76% 2.1 mph NW3.4 kmh NW 3.1 mph5.0 kmh 29.55 in1000.7 mb 0.00 in0.0 mm 0.00 in/hr0.0 mm/hr 0.00 in0.0 mm
07:34 AM 54.7°F12.6°C 47.6°F8.7°C 77% 2.2 mph NW3.5 kmh NW 4.5 mph7.2 kmh 29.55 in1000.7 mb 0.00 in0.0 mm 0.00 in/hr0.0 mm/hr 0.00 in0.0 mm
07:33 AM 54.5°F12.5°C 47.4°F8.6°C 77% 2.6 mph NW4.2 kmh NW 4.5 mph7.2 kmh 29.55 in1000.7 mb 0.00 in0.0 mm 0.00 in/hr0.0 mm/hr 0.00 in0.0 mm
07:32 AM 54.1°F12.3°C 47.1°F8.4°C 77% 2.9 mph NW4.7 kmh NW 5.4 mph8.7 kmh 29.55 in1000.7 mb 0.00 in0.0 mm 0.00 in/hr0.0 mm/hr 0.00 in0.0 mm
07:31 AM 54.0°F12.2°C 47.3°F8.5°C 78% 3.3 mph NW5.3 kmh NW 6.0 mph9.7 kmh 29.55 in1000.7 mb 0.00 in0.0 mm 0.00 in/hr0.0 mm/hr 0.00 in0.0 mm
07:30 AM 53.4°F11.9°C 46.7°F8.2°C 78% 3.4 mph NW5.5 kmh NW 6.0 mph9.7 kmh 29.55 in1000.7 mb 0.00 in0.0 mm 0.00 in/hr0.0 mm/hr 0.00 in0.0 mm
07:29 AM 53.2°F11.8°C 46.6°F8.1°C 78% 3.5 mph NW5.6 kmh NW 6.0 mph9.7 kmh 29.56 in1001.0 mb 0.00 in0.0 mm 0.00 in/hr0.0 mm/hr 0.00 in0.0 mm
07:28 AM 52.9°F11.6°C 46.6°F8.1°C 79% 3.4 mph NW5.5 kmh NW 6.0 mph9.7 kmh 29.56 in1001.0 mb 0.00 in0.0 mm 0.00 in/hr0.0 mm/hr 0.00 in0.0 mm
07:27 AM 52.7°F11.5°C 46.4°F8.0°C 79% 3.3 mph NW5.3 kmh NW 6.0 mph9.7 kmh 29.56 in1001.0 mb 0.00 in0.0 mm 0.00 in/hr0.0 mm/hr 0.00 in0.0 mm
07:26 AM 52.3°F11.3°C 46.0°F7.8°C 79% 3.3 mph NW5.3 kmh NW 6.0 mph9.7 kmh 29.56 in1001.0 mb 0.00 in0.0 mm 0.00 in/hr0.0 mm/hr 0.00 in0.0 mm
07:25 AM 52.2°F11.2°C 46.2°F7.9°C 80% 3.2 mph NW5.1 kmh NW 6.0 mph9.7 kmh 29.56 in1001.0 mb 0.00 in0.0 mm 0.00 in/hr0.0 mm/hr 0.00 in0.0 mm
07:24 AM 52.0°F11.1°C 46.0°F7.8°C 80% 3.1 mph NW5.0 kmh NW 6.0 mph9.7 kmh 29.56 in1001.0 mb 0.00 in0.0 mm 0.00 in/hr0.0 mm/hr 0.00 in0.0 mm
07:23 AM 51.8°F11.0°C 46.2°F7.9°C 81% 3.0 mph NW4.8 kmh NW 6.0 mph9.7 kmh 29.56 in1001.0 mb 0.00 in0.0 mm 0.00 in/hr0.0 mm/hr 0.00 in0.0 mm
07:22 AM 51.3°F10.7°C 45.6°F7.6°C 81% 2.7 mph NNW4.3 kmh NNW 6.0 mph9.7 kmh 29.56 in1001.0 mb 0.00 in0.0 mm 0.00 in/hr0.0 mm/hr 0.00 in0.0 mm
07:21 AM 51.1°F10.6°C 45.5°F7.5°C 81% 2.5 mph NNW4.0 kmh NNW 3.8 mph6.1 kmh 29.56 in1001.0 mb 0.00 in0.0 mm 0.00 in/hr0.0 mm/hr 0.00 in0.0 mm
07:20 AM 50.7°F10.4°C 45.1°F7.3°C 81% 2.4 mph NNW3.9 kmh NNW 3.8 mph6.1 kmh 29.56 in1001.0 mb 0.00 in0.0 mm 0.00 in/hr0.0 mm/hr 0.00 in0.0 mm
07:19 AM 50.5°F10.3°C 44.9°F7.2°C 81% 2.3 mph NNW3.7 kmh NNW 3.8 mph6.1 kmh 29.56 in1001.0 mb 0.00 in0.0 mm 0.00 in/hr0.0 mm/hr 0.00 in0.0 mm
07:18 AM 50.2°F10.1°C 44.6°F7.0°C 81% 2.3 mph NNW3.7 kmh NNW 3.8 mph6.1 kmh 29.56 in1001.0 mb 0.00 in0.0 mm 0.00 in/hr0.0 mm/hr 0.00 in0.0 mm
07:17 AM 50.0°F10.0°C 44.4°F6.9°C 81% 2.5 mph NNW4.0 kmh NNW 3.8 mph6.1 kmh 29.56 in1001.0 mb 0.00 in0.0 mm 0.00 in/hr0.0 mm/hr 0.00 in0.0 mm
07:16 AM 50.0°F10.0°C 44.4°F6.9°C 81% 2.5 mph NNW4.0 kmh NNW 3.8 mph6.1 kmh 29.56 in1001.0 mb 0.00 in0.0 mm 0.00 in/hr0.0 mm/hr 0.00 in0.0 mm
07:15 AM 49.8°F9.9°C 43.9°F6.6°C 80% 2.6 mph NNW4.2 kmh NNW 3.8 mph6.1 kmh 29.56 in1001.0 mb 0.00 in0.0 mm 0.00 in/hr0.0 mm/hr 0.00 in0.0 mm
07:14 AM 49.6°F9.8°C 43.7°F6.5°C 80% 2.5 mph NNW4.0 kmh NNW 3.8 mph6.1 kmh 29.56 in1001.0 mb 0.00 in0.0 mm 0.00 in/hr0.0 mm/hr 0.00 in0.0 mm
07:13 AM 49.6°F9.8°C 43.7°F6.5°C 80% 2.5 mph NNW4.0 kmh NNW 3.8 mph6.1 kmh 29.56 in1001.0 mb 0.00 in0.0 mm 0.00 in/hr0.0 mm/hr 0.00 in0.0 mm
07:12 AM 49.6°F9.8°C 43.7°F6.5°C 80% 2.5 mph N4.0 kmh N 3.8 mph6.1 kmh 29.56 in1001.0 mb 0.00 in0.0 mm 0.00 in/hr0.0 mm/hr 0.00 in0.0 mm
07:11 AM 49.6°F9.8°C 43.7°F6.5°C 80% 2.6 mph N4.2 kmh N 3.8 mph6.1 kmh 29.56 in1001.0 mb 0.00 in0.0 mm 0.00 in/hr0.0 mm/hr 0.00 in0.0 mm
07:10 AM 49.6°F9.8°C 44.1°F6.7°C 81% 2.6 mph N4.2 kmh N 3.8 mph6.1 kmh 29.56 in1001.0 mb 0.00 in0.0 mm 0.00 in/hr0.0 mm/hr 0.00 in0.0 mm
07:09 AM 49.6°F9.8°C 44.1°F6.7°C 81% 2.6 mph N4.2 kmh N 3.8 mph6.1 kmh 29.56 in1001.0 mb 0.00 in0.0 mm 0.00 in/hr0.0 mm/hr 0.00 in0.0 mm
07:08 AM 49.6°F9.8°C 44.1°F6.7°C 81% 2.6 mph NNE4.2 kmh NNE 3.8 mph6.1 kmh 29.56 in1001.0 mb 0.00 in0.0 mm 0.00 in/hr0.0 mm/hr 0.00 in0.0 mm
07:07 AM 49.6°F9.8°C 44.1°F6.7°C 81% 2.6 mph NNE4.2 kmh NNE 3.8 mph6.1 kmh 29.56 in1001.0 mb 0.00 in0.0 mm 0.00 in/hr0.0 mm/hr 0.00 in0.0 mm
07:06 AM 49.6°F9.8°C 44.1°F6.7°C 81% 2.6 mph NNE4.2 kmh NNE 3.8 mph6.1 kmh 29.56 in1001.0 mb 0.00 in0.0 mm 0.00 in/hr0.0 mm/hr 0.00 in0.0 mm
07:05 AM 49.6°F9.8°C 44.1°F6.7°C 81% 2.8 mph N4.5 kmh N 3.8 mph6.1 kmh 29.56 in1001.0 mb 0.00 in0.0 mm 0.00 in/hr0.0 mm/hr 0.00 in0.0 mm
07:04 AM 49.8°F9.9°C 44.2°F6.8°C 81% 2.8 mph N4.5 kmh N 3.8 mph6.1 kmh 29.56 in1001.0 mb 0.00 in0.0 mm 0.00 in/hr0.0 mm/hr 0.00 in0.0 mm
07:03 AM 49.8°F9.9°C 44.2°F6.8°C 81% 2.7 mph N4.3 kmh N 3.8 mph6.1 kmh 29.56 in1001.0 mb 0.00 in0.0 mm 0.00 in/hr0.0 mm/hr 0.00 in0.0 mm
07:02 AM 49.8°F9.9°C 44.2°F6.8°C 81% 2.5 mph N4.0 kmh N 3.8 mph6.1 kmh 29.56 in1001.0 mb 0.00 in0.0 mm 0.00 in/hr0.0 mm/hr 0.00 in0.0 mm
07:01 AM 50.0°F10.0°C 44.4°F6.9°C 81% 2.3 mph N3.7 kmh N 3.8 mph6.1 kmh 29.56 in1001.0 mb 0.00 in0.0 mm 0.00 in/hr0.0 mm/hr 0.00 in0.0 mm
07:00 AM 50.0°F10.0°C 44.4°F6.9°C 81% 2.1 mph NNW3.4 kmh NNW 3.8 mph6.1 kmh 29.56 in1001.0 mb 0.00 in0.0 mm 0.00 in/hr0.0 mm/hr 0.00 in0.0 mm
06:59 AM 50.0°F10.0°C 44.4°F6.9°C 81% 2.0 mph NNW3.2 kmh NNW 3.8 mph6.1 kmh 29.56 in1001.0 mb 0.00 in0.0 mm 0.00 in/hr0.0 mm/hr 0.00 in0.0 mm
06:58 AM 50.2°F10.1°C 44.9°F7.2°C 82% 1.9 mph NW3.1 kmh NW 3.8 mph6.1 kmh 29.56 in1001.0 mb 0.00 in0.0 mm 0.00 in/hr0.0 mm/hr 0.00 in0.0 mm
06:57 AM 50.2°F10.1°C 44.9°F7.2°C 82% 1.6 mph NNW2.6 kmh NNW 3.1 mph5.0 kmh 29.56 in1001.0 mb 0.00 in0.0 mm 0.00 in/hr0.0 mm/hr 0.00 in0.0 mm
06:56 AM 50.2°F10.1°C 44.9°F7.2°C 82% 1.6 mph NNW2.6 kmh NNW 3.1 mph5.0 kmh 29.56 in1001.0 mb 0.00 in0.0 mm 0.00 in/hr0.0 mm/hr 0.00 in0.0 mm
06:55 AM 50.4°F10.2°C 45.4°F7.4°C 83% 1.4 mph NW2.3 kmh NW 3.1 mph5.0 kmh 29.56 in1001.0 mb 0.00 in0.0 mm 0.00 in/hr0.0 mm/hr 0.00 in0.0 mm
06:54 AM 50.4°F10.2°C 45.4°F7.4°C 83% 1.2 mph NW1.9 kmh NW 2.2 mph3.5 kmh 29.56 in1001.0 mb 0.00 in0.0 mm 0.00 in/hr0.0 mm/hr 0.00 in0.0 mm
06:53 AM 50.4°F10.2°C 45.7°F7.6°C 84% 1.0 mph NW1.6 kmh NW 2.2 mph3.5 kmh 29.56 in1001.0 mb 0.00 in0.0 mm 0.00 in/hr0.0 mm/hr 0.00 in0.0 mm
06:52 AM 50.4°F10.2°C 46.0°F7.8°C 85% 0.8 mph NW1.3 kmh NW 2.2 mph3.5 kmh 29.56 in1001.0 mb 0.00 in0.0 mm 0.00 in/hr0.0 mm/hr 0.00 in0.0 mm
06:51 AM 50.4°F10.2°C 46.0°F7.8°C 85% 0.8 mph NW1.3 kmh NW 2.2 mph3.5 kmh 29.56 in1001.0 mb 0.00 in0.0 mm 0.00 in/hr0.0 mm/hr 0.00 in0.0 mm
06:50 AM 50.4°F10.2°C 46.3°F7.9°C 86% 0.8 mph NW1.3 kmh NW 2.2 mph3.5 kmh 29.56 in1001.0 mb 0.00 in0.0 mm 0.00 in/hr0.0 mm/hr 0.00 in0.0 mm
06:49 AM 50.4°F10.2°C 46.6°F8.1°C 87% 0.8 mph WNW1.3 kmh WNW 2.2 mph3.5 kmh 29.56 in1001.0 mb 0.00 in0.0 mm 0.00 in/hr0.0 mm/hr 0.00 in0.0 mm
06:48 AM 50.4°F10.2°C 46.9°F8.3°C 88% 0.9 mph WNW1.4 kmh WNW 2.2 mph3.5 kmh 29.56 in1001.0 mb 0.00 in0.0 mm 0.00 in/hr0.0 mm/hr 0.00 in0.0 mm
06:47 AM 50.2°F10.1°C 46.8°F8.2°C 88% 1.0 mph WNW1.6 kmh WNW 2.2 mph3.5 kmh 29.56 in1001.0 mb 0.00 in0.0 mm 0.00 in/hr0.0 mm/hr 0.00 in0.0 mm
06:46 AM 50.0°F10.0°C 47.2°F8.4°C 90% 1.0 mph WNW1.6 kmh WNW 2.2 mph3.5 kmh 29.56 in1001.0 mb 0.00 in0.0 mm 0.00 in/hr0.0 mm/hr 0.00 in0.0 mm
06:45 AM 49.8°F9.9°C 47.0°F8.3°C 90% 1.0 mph WNW1.6 kmh WNW 2.2 mph3.5 kmh 29.56 in1001.0 mb 0.00 in0.0 mm 0.00 in/hr0.0 mm/hr 0.00 in0.0 mm
06:44 AM 49.6°F9.8°C 47.1°F8.4°C 91% 1.2 mph NW1.9 kmh NW 3.1 mph5.0 kmh 29.56 in1001.0 mb 0.00 in0.0 mm 0.00 in/hr0.0 mm/hr 0.00 in0.0 mm
06:43 AM 49.5°F9.7°C 46.9°F8.3°C 91% 1.4 mph NW2.3 kmh NW 3.1 mph5.0 kmh 29.56 in1001.0 mb 0.00 in0.0 mm 0.00 in/hr0.0 mm/hr 0.00 in0.0 mm
06:42 AM 49.1°F9.5°C 46.9°F8.3°C 92% 1.7 mph NW2.7 kmh NW 3.1 mph5.0 kmh 29.57 in1001.4 mb 0.00 in0.0 mm 0.00 in/hr0.0 mm/hr 0.00 in0.0 mm
06:41 AM 48.7°F9.3°C 46.5°F8.1°C 92% 2.0 mph NW3.2 kmh NW 3.8 mph6.1 kmh 29.56 in1001.0 mb 0.00 in0.0 mm 0.00 in/hr0.0 mm/hr 0.00 in0.0 mm
06:40 AM 48.6°F9.2°C 46.6°F8.1°C 93% 2.2 mph NW3.5 kmh NW 3.8 mph6.1 kmh 29.56 in1001.0 mb 0.00 in0.0 mm 0.00 in/hr0.0 mm/hr 0.00 in0.0 mm
06:39 AM 48.4°F9.1°C 46.5°F8.1°C 93% 2.4 mph NW3.9 kmh NW 3.8 mph6.1 kmh 29.57 in1001.4 mb 0.00 in0.0 mm 0.00 in/hr0.0 mm/hr 0.00 in0.0 mm
06:38 AM 48.0°F8.9°C 46.1°F7.8°C 93% 2.5 mph NW4.0 kmh NW 3.8 mph6.1 kmh 29.57 in1001.4 mb 0.00 in0.0 mm 0.00 in/hr0.0 mm/hr 0.00 in0.0 mm
06:37 AM 47.8°F8.8°C 46.2°F7.9°C 94% 2.6 mph NW4.2 kmh NW 3.8 mph6.1 kmh 29.56 in1001.0 mb 0.00 in0.0 mm 0.00 in/hr0.0 mm/hr 0.00 in0.0 mm
06:36 AM 47.7°F8.7°C 46.0°F7.8°C 94% 2.5 mph NW4.0 kmh NW 3.8 mph6.1 kmh 29.57 in1001.4 mb 0.00 in0.0 mm 0.00 in/hr0.0 mm/hr 0.00 in0.0 mm
06:35 AM 47.5°F8.6°C 45.8°F7.7°C 94% 2.8 mph NW4.5 kmh NW 3.8 mph6.1 kmh 29.56 in1001.0 mb 0.00 in0.0 mm 0.00 in/hr0.0 mm/hr 0.00 in0.0 mm
06:34 AM 47.1°F8.4°C 45.8°F7.7°C 95% 3.0 mph NW4.8 kmh NW 3.8 mph6.1 kmh 29.57 in1001.4 mb 0.00 in0.0 mm 0.00 in/hr0.0 mm/hr 0.00 in0.0 mm
06:33 AM 46.9°F8.3°C 45.9°F7.7°C 96% 3.1 mph NW5.0 kmh NW 4.5 mph7.2 kmh 29.56 in1001.0 mb 0.00 in0.0 mm 0.00 in/hr0.0 mm/hr 0.00 in0.0 mm
06:32 AM 46.8°F8.2°C 45.7°F7.6°C 96% 3.2 mph NW5.1 kmh NW 4.5 mph7.2 kmh 29.56 in1001.0 mb 0.00 in0.0 mm 0.00 in/hr0.0 mm/hr 0.00 in0.0 mm
06:31 AM 46.6°F8.1°C 45.5°F7.5°C 96% 3.2 mph NW5.1 kmh NW 4.5 mph7.2 kmh 29.57 in1001.4 mb 0.00 in0.0 mm 0.00 in/hr0.0 mm/hr 0.00 in0.0 mm
06:30 AM 46.4°F8.0°C 45.6°F7.6°C 97% 3.3 mph NW5.3 kmh NW 4.5 mph7.2 kmh 29.57 in1001.4 mb 0.00 in0.0 mm 0.00 in/hr0.0 mm/hr 0.00 in0.0 mm
06:29 AM 46.2°F7.9°C 45.4°F7.4°C 97% 3.4 mph NW5.5 kmh NW 4.5 mph7.2 kmh 29.57 in1001.4 mb 0.00 in0.0 mm 0.00 in/hr0.0 mm/hr 0.00 in0.0 mm
06:28 AM 46.0°F7.8°C 45.2°F7.3°C 97% 3.6 mph NW5.8 kmh NW 4.5 mph7.2 kmh 29.57 in1001.4 mb 0.00 in0.0 mm 0.00 in/hr0.0 mm/hr 0.00 in0.0 mm
06:27 AM 45.9°F7.7°C 45.3°F7.4°C 98% 3.6 mph NW5.8 kmh NW 4.5 mph7.2 kmh 29.57 in1001.4 mb 0.00 in0.0 mm 0.00 in/hr0.0 mm/hr 0.00 in0.0 mm
06:26 AM 45.5°F7.5°C 45.2°F7.3°C 99% 3.7 mph NW6.0 kmh NW 4.5 mph7.2 kmh 29.57 in1001.4 mb 0.00 in0.0 mm 0.00 in/hr0.0 mm/hr 0.00 in0.0 mm
06:25 AM 45.3°F7.4°C 45.1°F7.3°C 99% 3.6 mph NW5.8 kmh NW 4.5 mph7.2 kmh 29.57 in1001.4 mb 0.00 in0.0 mm 0.00 in/hr0.0 mm/hr 0.00 in0.0 mm
06:24 AM 45.3°F7.4°C 45.1°F7.3°C 99% 3.5 mph NW5.6 kmh NW 4.5 mph7.2 kmh 29.57 in1001.4 mb 0.00 in0.0 mm 0.00 in/hr0.0 mm/hr 0.00 in0.0 mm
06:23 AM 45.1°F7.3°C 44.9°F7.2°C 99% 3.4 mph NW5.5 kmh NW 4.5 mph7.2 kmh 29.57 in1001.4 mb 0.00 in0.0 mm 0.00 in/hr0.0 mm/hr 0.00 in0.0 mm
06:22 AM 44.8°F7.1°C 44.5°F6.9°C 99% 3.4 mph NW5.5 kmh NW 4.5 mph7.2 kmh 29.57 in1001.4 mb 0.00 in0.0 mm 0.00 in/hr0.0 mm/hr 0.00 in0.0 mm
06:21 AM 44.6°F7.0°C 44.3°F6.8°C 99% 3.3 mph NW5.3 kmh NW 4.5 mph7.2 kmh 29.57 in1001.4 mb 0.00 in0.0 mm 0.00 in/hr0.0 mm/hr 0.00 in0.0 mm
06:20 AM 44.4°F6.9°C 44.2°F6.8°C 99% 3.1 mph NW5.0 kmh NW 4.5 mph7.2 kmh 29.57 in1001.4 mb 0.00 in0.0 mm 0.00 in/hr0.0 mm/hr 0.00 in0.0 mm
06:19 AM 44.2°F6.8°C 44.0°F6.7°C 99% 2.9 mph NW4.7 kmh NW 4.5 mph7.2 kmh 29.57 in1001.4 mb 0.00 in0.0 mm 0.00 in/hr0.0 mm/hr 0.00 in0.0 mm
06:18 AM 43.9°F6.6°C 43.6°F6.4°C 99% 2.8 mph NW4.5 kmh NW 3.8 mph6.1 kmh 29.57 in1001.4 mb 0.00 in0.0 mm 0.00 in/hr0.0 mm/hr 0.00 in0.0 mm
06:17 AM 43.7°F6.5°C 43.4°F6.3°C 99% 2.8 mph NW4.5 kmh NW 3.8 mph6.1 kmh 29.57 in1001.4 mb 0.00 in0.0 mm 0.00 in/hr0.0 mm/hr 0.00 in0.0 mm
06:16 AM 43.3°F6.3°C 43.1°F6.2°C 99% 2.7 mph NW4.3 kmh NW 3.8 mph6.1 kmh 29.57 in1001.4 mb 0.00 in0.0 mm 0.00 in/hr0.0 mm/hr 0.00 in0.0 mm
06:15 AM 43.2°F6.2°C 42.9°F6.1°C 99% 2.8 mph NW4.5 kmh NW 3.8 mph6.1 kmh 29.57 in1001.4 mb 0.00 in0.0 mm 0.00 in/hr0.0 mm/hr 0.00 in0.0 mm
06:14 AM 42.8°F6.0°C 42.5°F5.8°C 99% 2.9 mph NW4.7 kmh NW 4.5 mph7.2 kmh 29.57 in1001.4 mb 0.00 in0.0 mm 0.00 in/hr0.0 mm/hr 0.00 in0.0 mm
06:13 AM 42.6°F5.9°C 42.4°F5.8°C 99% 3.0 mph NW4.8 kmh NW 4.5 mph7.2 kmh 29.57 in1001.4 mb 0.00 in0.0 mm 0.00 in/hr0.0 mm/hr 0.00 in0.0 mm
06:12 AM 42.4°F5.8°C 42.2°F5.7°C 99% 3.1 mph NW5.0 kmh NW 4.5 mph7.2 kmh 29.57 in1001.4 mb 0.00 in0.0 mm 0.00 in/hr0.0 mm/hr 0.00 in0.0 mm
06:11 AM 42.1°F5.6°C 41.8°F5.4°C 99% 3.3 mph NW5.3 kmh NW 4.5 mph7.2 kmh 29.57 in1001.4 mb 0.00 in0.0 mm 0.00 in/hr0.0 mm/hr 0.00 in0.0 mm
06:10 AM 41.7°F5.4°C 41.5°F5.3°C 99% 3.4 mph NW5.5 kmh NW 4.5 mph7.2 kmh 29.57 in1001.4 mb 0.00 in0.0 mm 0.00 in/hr0.0 mm/hr 0.00 in0.0 mm
06:09 AM 41.5°F5.3°C 41.3°F5.2°C 99% 3.6 mph NW5.8 kmh NW 4.5 mph7.2 kmh 29.56 in1001.0 mb 0.00 in0.0 mm 0.00 in/hr0.0 mm/hr 0.00 in0.0 mm
06:08 AM 41.4°F5.2°C 41.1°F5.1°C 99% 3.6 mph NW5.8 kmh NW 4.5 mph7.2 kmh 29.57 in1001.4 mb 0.00 in0.0 mm 0.00 in/hr0.0 mm/hr 0.00 in0.0 mm
06:07 AM 41.2°F5.1°C 40.9°F4.9°C 99% 3.6 mph NW5.8 kmh NW 4.5 mph7.2 kmh 29.56 in1001.0 mb 0.00 in0.0 mm 0.00 in/hr0.0 mm/hr 0.00 in0.0 mm
06:06 AM 41.0°F5.0°C 40.7°F4.8°C 99% 3.6 mph NW5.8 kmh NW 4.5 mph7.2 kmh 29.56 in1001.0 mb 0.00 in0.0 mm 0.00 in/hr0.0 mm/hr 0.00 in0.0 mm
06:05 AM 40.6°F4.8°C 40.4°F4.7°C 99% 3.7 mph NW6.0 kmh NW 6.0 mph9.7 kmh 29.56 in1001.0 mb 0.00 in0.0 mm 0.00 in/hr0.0 mm/hr 0.00 in0.0 mm
06:04 AM 40.6°F4.8°C 40.4°F4.7°C 99% 3.9 mph NW6.3 kmh NW 6.0 mph9.7 kmh 29.56 in1001.0 mb 0.00 in0.0 mm 0.00 in/hr0.0 mm/hr 0.00 in0.0 mm
06:03 AM 40.5°F4.7°C 40.2°F4.6°C 99% 3.9 mph NW6.3 kmh NW 6.0 mph9.7 kmh 29.56 in1001.0 mb 0.00 in0.0 mm 0.00 in/hr0.0 mm/hr 0.00 in0.0 mm
06:02 AM 40.1°F4.5°C 39.8°F4.3°C 99% 4.0 mph NW6.4 kmh NW 6.0 mph9.7 kmh 29.56 in1001.0 mb 0.00 in0.0 mm 0.00 in/hr0.0 mm/hr 0.00 in0.0 mm
06:01 AM 39.9°F4.4°C 39.7°F4.3°C 99% 3.9 mph NW6.3 kmh NW 6.0 mph9.7 kmh 29.56 in1001.0 mb 0.00 in0.0 mm 0.00 in/hr0.0 mm/hr 0.00 in0.0 mm
06:00 AM 39.7°F4.3°C 39.5°F4.2°C 99% 3.7 mph NW6.0 kmh NW 6.0 mph9.7 kmh 29.56 in1001.0 mb 0.00 in0.0 mm 0.00 in/hr0.0 mm/hr 0.00 in0.0 mm
05:59 AM 39.6°F4.2°C 39.3°F4.1°C 99% 3.5 mph NW5.6 kmh NW 6.0 mph9.7 kmh 29.56 in1001.0 mb 0.00 in0.0 mm 0.00 in/hr0.0 mm/hr 0.00 in0.0 mm
05:58 AM 39.4°F4.1°C 39.1°F3.9°C 99% 3.4 mph NW5.5 kmh NW 6.0 mph9.7 kmh 29.56 in1001.0 mb 0.00 in0.0 mm 0.00 in/hr0.0 mm/hr 0.00 in0.0 mm
05:57 AM 39.2°F4.0°C 38.9°F3.8°C 99% 3.4 mph NW5.5 kmh NW 6.0 mph9.7 kmh 29.56 in1001.0 mb 0.00 in0.0 mm 0.00 in/hr0.0 mm/hr 0.00 in0.0 mm
05:56 AM 39.0°F3.9°C 38.8°F3.8°C 99% 3.5 mph NW5.6 kmh NW 6.0 mph9.7 kmh 29.56 in1001.0 mb 0.00 in0.0 mm 0.00 in/hr0.0 mm/hr 0.00 in0.0 mm
05:55 AM 38.7°F3.7°C 38.4°F3.6°C 99% 3.2 mph NW5.1 kmh NW 6.0 mph9.7 kmh 29.56 in1001.0 mb 0.00 in0.0 mm 0.00 in/hr0.0 mm/hr 0.00 in0.0 mm
05:54 AM 38.5°F3.6°C 38.2°F3.4°C 99% 2.9 mph NW4.7 kmh NW 5.4 mph8.7 kmh 29.56 in1001.0 mb 0.00 in0.0 mm 0.00 in/hr0.0 mm/hr 0.00 in0.0 mm
05:53 AM 38.5°F3.6°C 38.2°F3.4°C 99% 2.5 mph NW4.0 kmh NW 5.4 mph8.7 kmh 29.56 in1001.0 mb 0.00 in0.0 mm 0.00 in/hr0.0 mm/hr 0.00 in0.0 mm
05:52 AM 38.3°F3.5°C 38.0°F3.3°C 99% 2.2 mph NNW3.5 kmh NNW 5.4 mph8.7 kmh 29.56 in1001.0 mb 0.00 in0.0 mm 0.00 in/hr0.0 mm/hr 0.00 in0.0 mm
05:51 AM 37.9°F3.3°C 37.7°F3.2°C 99% 2.0 mph NNW3.2 kmh NNW 3.1 mph5.0 kmh 29.56 in1001.0 mb 0.00 in0.0 mm 0.00 in/hr0.0 mm/hr 0.00 in0.0 mm
05:50 AM 37.9°F3.3°C 37.7°F3.2°C 99% 2.0 mph NNW3.2 kmh NNW 3.1 mph5.0 kmh 29.57 in1001.4 mb 0.00 in0.0 mm 0.00 in/hr0.0 mm/hr 0.00 in0.0 mm
05:49 AM 37.8°F3.2°C 37.5°F3.1°C 99% 2.0 mph NNW3.2 kmh NNW 3.1 mph5.0 kmh 29.57 in1001.4 mb 0.00 in0.0 mm 0.00 in/hr0.0 mm/hr 0.00 in0.0 mm
05:48 AM 37.8°F3.2°C 37.5°F3.1°C 99% 2.0 mph NNW3.2 kmh NNW 3.1 mph5.0 kmh 29.57 in1001.4 mb 0.00 in0.0 mm 0.00 in/hr0.0 mm/hr 0.00 in0.0 mm
05:47 AM 37.8°F3.2°C 37.5°F3.1°C 99% 1.9 mph NNW3.1 kmh NNW 3.1 mph5.0 kmh 29.57 in1001.4 mb 0.00 in0.0 mm 0.00 in/hr0.0 mm/hr 0.00 in0.0 mm
05:46 AM 37.8°F3.2°C 37.5°F3.1°C 99% 1.9 mph NNW3.1 kmh NNW 3.1 mph5.0 kmh 29.57 in1001.4 mb 0.00 in0.0 mm 0.00 in/hr0.0 mm/hr 0.00 in0.0 mm
05:45 AM 37.8°F3.2°C 37.5°F3.1°C 99% 1.8 mph NNW2.9 kmh NNW 3.1 mph5.0 kmh 29.57 in1001.4 mb 0.00 in0.0 mm 0.00 in/hr0.0 mm/hr 0.00 in0.0 mm
05:44 AM 37.6°F3.1°C 37.3°F2.9°C 99% 1.8 mph NNW2.9 kmh NNW 3.1 mph5.0 kmh 29.57 in1001.4 mb 0.00 in0.0 mm 0.00 in/hr0.0 mm/hr 0.00 in0.0 mm
05:43 AM 37.6°F3.1°C 37.3°F2.9°C 99% 1.9 mph NNW3.1 kmh NNW 3.1 mph5.0 kmh 29.57 in1001.4 mb 0.00 in0.0 mm 0.00 in/hr0.0 mm/hr 0.00 in0.0 mm
05:42 AM 37.8°F3.2°C 37.5°F3.1°C 99% 2.0 mph NNW3.2 kmh NNW 3.1 mph5.0 kmh 29.57 in1001.4 mb 0.00 in0.0 mm 0.00 in/hr0.0 mm/hr 0.00 in0.0 mm
05:41 AM 37.6°F3.1°C 37.3°F2.9°C 99% 2.1 mph NNW3.4 kmh NNW 3.1 mph5.0 kmh 29.57 in1001.4 mb 0.00 in0.0 mm 0.00 in/hr0.0 mm/hr 0.00 in0.0 mm
05:40 AM 37.8°F3.2°C 37.5°F3.1°C 99% 2.2 mph NNW3.5 kmh NNW 3.1 mph5.0 kmh 29.57 in1001.4 mb 0.00 in0.0 mm 0.00 in/hr0.0 mm/hr 0.00 in0.0 mm
05:39 AM 37.8°F3.2°C 37.5°F3.1°C 99% 2.2 mph NNW3.5 kmh NNW 3.1 mph5.0 kmh 29.57 in1001.4 mb 0.00 in0.0 mm 0.00 in/hr0.0 mm/hr 0.00 in0.0 mm
05:38 AM 37.8°F3.2°C 37.5°F3.1°C 99% 2.2 mph NNW3.5 kmh NNW 3.8 mph6.1 kmh 29.57 in1001.4 mb 0.00 in0.0 mm 0.00 in/hr0.0 mm/hr 0.00 in0.0 mm
05:37 AM 37.8°F3.2°C 37.5°F3.1°C 99% 2.3 mph NNW3.7 kmh NNW 3.8 mph6.1 kmh 29.57 in1001.4 mb 0.00 in0.0 mm 0.00 in/hr0.0 mm/hr 0.00 in0.0 mm
05:36 AM 37.8°F3.2°C 37.5°F3.1°C 99% 2.4 mph NNW3.9 kmh NNW 3.8 mph6.1 kmh 29.57 in1001.4 mb 0.00 in0.0 mm 0.00 in/hr0.0 mm/hr 0.00 in0.0 mm
05:35 AM 37.8°F3.2°C 37.5°F3.1°C 99% 2.5 mph NNW4.0 kmh NNW 3.8 mph6.1 kmh 29.57 in1001.4 mb 0.00 in0.0 mm 0.00 in/hr0.0 mm/hr 0.00 in0.0 mm
05:34 AM 37.8°F3.2°C 37.5°F3.1°C 99% 2.6 mph NNW4.2 kmh NNW 3.8 mph6.1 kmh 29.56 in1001.0 mb 0.00 in0.0 mm 0.00 in/hr0.0 mm/hr 0.00 in0.0 mm
05:33 AM 37.8°F3.2°C 37.5°F3.1°C 99% 2.7 mph NNW4.3 kmh NNW 3.8 mph6.1 kmh 29.57 in1001.4 mb 0.00 in0.0 mm 0.00 in/hr0.0 mm/hr 0.00 in0.0 mm
05:32 AM 37.8°F3.2°C 37.5°F3.1°C 99% 2.6 mph NNW4.2 kmh NNW 3.8 mph6.1 kmh 29.57 in1001.4 mb 0.00 in0.0 mm 0.00 in/hr0.0 mm/hr 0.00 in0.0 mm
05:31 AM 37.8°F3.2°C 37.5°F3.1°C 99% 2.6 mph NW4.2 kmh NW 3.8 mph6.1 kmh 29.57 in1001.4 mb 0.00 in0.0 mm 0.00 in/hr0.0 mm/hr 0.00 in0.0 mm
05:30 AM 37.8°F3.2°C 37.5°F3.1°C 99% 2.6 mph NW4.2 kmh NW 3.8 mph6.1 kmh 29.57 in1001.4 mb 0.00 in0.0 mm 0.00 in/hr0.0 mm/hr 0.00 in0.0 mm
05:29 AM 37.8°F3.2°C 37.5°F3.1°C 99% 2.7 mph NW4.3 kmh NW 3.8 mph6.1 kmh 29.57 in1001.4 mb 0.00 in0.0 mm 0.00 in/hr0.0 mm/hr 0.00 in0.0 mm
05:28 AM 37.8°F3.2°C 37.5°F3.1°C 99% 2.7 mph NW4.3 kmh NW 3.8 mph6.1 kmh 29.57 in1001.4 mb 0.00 in0.0 mm 0.00 in/hr0.0 mm/hr 0.00 in0.0 mm
05:27 AM 37.8°F3.2°C 37.5°F3.1°C 99% 2.5 mph NW4.0 kmh NW 3.1 mph5.0 kmh 29.57 in1001.4 mb 0.00 in0.0 mm 0.00 in/hr0.0 mm/hr 0.00 in0.0 mm
05:26 AM 37.8°F3.2°C 37.5°F3.1°C 99% 2.3 mph NW3.7 kmh NW 3.1 mph5.0 kmh 29.57 in1001.4 mb 0.00 in0.0 mm 0.00 in/hr0.0 mm/hr 0.00 in0.0 mm
05:25 AM 37.8°F3.2°C 37.5°F3.1°C 99% 2.3 mph NW3.7 kmh NW 3.1 mph5.0 kmh 29.57 in1001.4 mb 0.00 in0.0 mm 0.00 in/hr0.0 mm/hr 0.00 in0.0 mm
05:24 AM 37.9°F3.3°C 37.7°F3.2°C 99% 2.2 mph NW3.5 kmh NW 3.1 mph5.0 kmh 29.56 in1001.0 mb 0.00 in0.0 mm 0.00 in/hr0.0 mm/hr 0.00 in0.0 mm
05:23 AM 37.9°F3.3°C 37.7°F3.2°C 99% 2.2 mph NW3.5 kmh NW 3.1 mph5.0 kmh 29.56 in1001.0 mb 0.00 in0.0 mm 0.00 in/hr0.0 mm/hr 0.00 in0.0 mm
05:22 AM 37.9°F3.3°C 37.7°F3.2°C 99% 2.3 mph NW3.7 kmh NW 3.1 mph5.0 kmh 29.56 in1001.0 mb 0.00 in0.0 mm 0.00 in/hr0.0 mm/hr 0.00 in0.0 mm
05:21 AM 37.9°F3.3°C 37.7°F3.2°C 99% 2.3 mph NW3.7 kmh NW 3.1 mph5.0 kmh 29.57 in1001.4 mb 0.00 in0.0 mm 0.00 in/hr0.0 mm/hr 0.00 in0.0 mm
05:20 AM 37.9°F3.3°C 37.7°F3.2°C 99% 2.3 mph NW3.7 kmh NW 3.1 mph5.0 kmh 29.57 in1001.4 mb 0.00 in0.0 mm 0.00 in/hr0.0 mm/hr 0.00 in0.0 mm
05:19 AM 37.9°F3.3°C 37.7°F3.2°C 99% 2.3 mph NW3.7 kmh NW 3.1 mph5.0 kmh 29.56 in1001.0 mb 0.00 in0.0 mm 0.00 in/hr0.0 mm/hr 0.00 in0.0 mm
05:18 AM 37.9°F3.3°C 37.7°F3.2°C 99% 2.4 mph NW3.9 kmh NW 3.8 mph6.1 kmh 29.56 in1001.0 mb 0.00 in0.0 mm 0.00 in/hr0.0 mm/hr 0.00 in0.0 mm
05:17 AM 37.9°F3.3°C 37.7°F3.2°C 99% 2.5 mph NW4.0 kmh NW 3.8 mph6.1 kmh 29.56 in1001.0 mb 0.00 in0.0 mm 0.00 in/hr0.0 mm/hr 0.00 in0.0 mm
05:16 AM 37.9°F3.3°C 37.7°F3.2°C 99% 2.7 mph NW4.3 kmh NW 3.8 mph6.1 kmh 29.56 in1001.0 mb 0.00 in0.0 mm 0.00 in/hr0.0 mm/hr 0.00 in0.0 mm
05:15 AM 37.9°F3.3°C 37.7°F3.2°C 99% 2.8 mph NW4.5 kmh NW 3.8 mph6.1 kmh 29.56 in1001.0 mb 0.00 in0.0 mm 0.00 in/hr0.0 mm/hr 0.00 in0.0 mm
05:14 AM 37.9°F3.3°C 37.7°F3.2°C 99% 2.8 mph NW4.5 kmh NW 3.8 mph6.1 kmh 29.57 in1001.4 mb 0.00 in0.0 mm 0.00 in/hr0.0 mm/hr 0.00 in0.0 mm
05:13 AM 37.9°F3.3°C 37.7°F3.2°C 99% 2.8 mph NW4.5 kmh NW 3.8 mph6.1 kmh 29.57 in1001.4 mb 0.00 in0.0 mm 0.00 in/hr0.0 mm/hr 0.00 in0.0 mm
05:12 AM 37.9°F3.3°C 37.7°F3.2°C 99% 2.7 mph NW4.3 kmh NW 3.8 mph6.1 kmh 29.57 in1001.4 mb 0.00 in0.0 mm 0.00 in/hr0.0 mm/hr 0.00 in0.0 mm
05:11 AM 37.9°F3.3°C 37.7°F3.2°C 99% 2.7 mph NW4.3 kmh NW 3.8 mph6.1 kmh 29.57 in1001.4 mb 0.00 in0.0 mm 0.00 in/hr0.0 mm/hr 0.00 in0.0 mm
05:10 AM 37.9°F3.3°C 37.7°F3.2°C 99% 2.6 mph NW4.2 kmh NW 3.8 mph6.1 kmh 29.57 in1001.4 mb 0.00 in0.0 mm 0.00 in/hr0.0 mm/hr 0.00 in0.0 mm
05:09 AM 37.9°F3.3°C 37.7°F3.2°C 99% 2.5 mph NW4.0 kmh NW 3.8 mph6.1 kmh 29.57 in1001.4 mb 0.00 in0.0 mm 0.00 in/hr0.0 mm/hr 0.00 in0.0 mm
05:08 AM 37.9°F3.3°C 37.7°F3.2°C 99% 2.3 mph NW3.7 kmh NW 3.8 mph6.1 kmh 29.57 in1001.4 mb 0.00 in0.0 mm 0.00 in/hr0.0 mm/hr 0.00 in0.0 mm
05:07 AM 38.1°F3.4°C 37.9°F3.3°C 99% 2.3 mph NW3.7 kmh NW 3.8 mph6.1 kmh 29.57 in1001.4 mb 0.00 in0.0 mm 0.00 in/hr0.0 mm/hr 0.00 in0.0 mm
05:06 AM 38.1°F3.4°C 37.6°F3.1°C 98% 2.2 mph NW3.5 kmh NW 3.8 mph6.1 kmh 29.56 in1001.0 mb 0.00 in0.0 mm 0.00 in/hr0.0 mm/hr 0.00 in0.0 mm
05:05 AM 38.1°F3.4°C 37.6°F3.1°C 98% 2.0 mph NW3.2 kmh NW 3.1 mph5.0 kmh 29.56 in1001.0 mb 0.00 in0.0 mm 0.00 in/hr0.0 mm/hr 0.00 in0.0 mm
05:04 AM 38.1°F3.4°C 37.6°F3.1°C 98% 2.1 mph NW3.4 kmh NW 3.1 mph5.0 kmh 29.57 in1001.4 mb 0.00 in0.0 mm 0.00 in/hr0.0 mm/hr 0.00 in0.0 mm
05:03 AM 38.1°F3.4°C 37.6°F3.1°C 98% 2.2 mph NW3.5 kmh NW 3.1 mph5.0 kmh 29.57 in1001.4 mb 0.00 in0.0 mm 0.00 in/hr0.0 mm/hr 0.00 in0.0 mm
05:02 AM 38.1°F3.4°C 37.6°F3.1°C 98% 2.3 mph NW3.7 kmh NW 3.1 mph5.0 kmh 29.57 in1001.4 mb 0.00 in0.0 mm 0.00 in/hr0.0 mm/hr 0.00 in0.0 mm
05:01 AM 38.1°F3.4°C 37.6°F3.1°C 98% 2.3 mph NW3.7 kmh NW 3.1 mph5.0 kmh 29.57 in1001.4 mb 0.00 in0.0 mm 0.00 in/hr0.0 mm/hr 0.00 in0.0 mm
05:00 AM 38.1°F3.4°C 37.6°F3.1°C 98% 2.4 mph NNW3.9 kmh NNW 3.1 mph5.0 kmh 29.56 in1001.0 mb 0.00 in0.0 mm 0.00 in/hr0.0 mm/hr 0.00 in0.0 mm
04:59 AM 38.1°F3.4°C 37.6°F3.1°C 98% 2.5 mph NNW4.0 kmh NNW 3.1 mph5.0 kmh 29.56 in1001.0 mb 0.00 in0.0 mm 0.00 in/hr0.0 mm/hr 0.00 in0.0 mm
04:58 AM 38.1°F3.4°C 37.6°F3.1°C 98% 2.5 mph NNW4.0 kmh NNW 3.1 mph5.0 kmh 29.56 in1001.0 mb 0.00 in0.0 mm 0.00 in/hr0.0 mm/hr 0.00 in0.0 mm
04:57 AM 38.1°F3.4°C 37.6°F3.1°C 98% 2.3 mph NNW3.7 kmh NNW 3.1 mph5.0 kmh 29.57 in1001.4 mb 0.00 in0.0 mm 0.00 in/hr0.0 mm/hr 0.00 in0.0 mm
04:56 AM 38.1°F3.4°C 37.6°F3.1°C 98% 2.4 mph N3.9 kmh N 3.1 mph5.0 kmh 29.57 in1001.4 mb 0.00 in0.0 mm 0.00 in/hr0.0 mm/hr 0.00 in0.0 mm
04:55 AM 38.3°F3.5°C 37.8°F3.2°C 98% 2.5 mph N4.0 kmh N 3.1 mph5.0 kmh 29.56 in1001.0 mb 0.00 in0.0 mm 0.00 in/hr0.0 mm/hr 0.00 in0.0 mm
04:54 AM 38.3°F3.5°C 37.8°F3.2°C 98% 2.5 mph N4.0 kmh N 3.1 mph5.0 kmh 29.57 in1001.4 mb 0.00 in0.0 mm 0.00 in/hr0.0 mm/hr 0.00 in0.0 mm
04:53 AM 38.3°F3.5°C 37.8°F3.2°C 98% 2.4 mph NNW3.9 kmh NNW 3.1 mph5.0 kmh 29.57 in1001.4 mb 0.00 in0.0 mm 0.00 in/hr0.0 mm/hr 0.00 in0.0 mm
04:52 AM 38.3°F3.5°C 37.8°F3.2°C 98% 2.3 mph NNW3.7 kmh NNW 3.1 mph5.0 kmh 29.56 in1001.0 mb 0.00 in0.0 mm 0.00 in/hr0.0 mm/hr 0.00 in0.0 mm
04:51 AM 38.3°F3.5°C 37.8°F3.2°C 98% 2.2 mph NNW3.5 kmh NNW 3.1 mph5.0 kmh 29.56 in1001.0 mb 0.00 in0.0 mm 0.00 in/hr0.0 mm/hr 0.00 in0.0 mm
04:50 AM 38.3°F3.5°C 37.8°F3.2°C 98% 2.1 mph NNW3.4 kmh NNW 3.1 mph5.0 kmh 29.56 in1001.0 mb 0.00 in0.0 mm 0.00 in/hr0.0 mm/hr 0.00 in0.0 mm
04:49 AM 38.3°F3.5°C 37.8°F3.2°C 98% 2.0 mph NNW3.2 kmh NNW 3.1 mph5.0 kmh 29.56 in1001.0 mb 0.00 in0.0 mm 0.00 in/hr0.0 mm/hr 0.00 in0.0 mm
04:48 AM 38.3°F3.5°C 37.8°F3.2°C 98% 2.1 mph NNW3.4 kmh NNW 3.1 mph5.0 kmh 29.56 in1001.0 mb 0.00 in0.0 mm 0.00 in/hr0.0 mm/hr 0.00 in0.0 mm
04:47 AM 38.3°F3.5°C 37.8°F3.2°C 98% 2.3 mph NW3.7 kmh NW 3.8 mph6.1 kmh 29.56 in1001.0 mb 0.00 in0.0 mm 0.00 in/hr0.0 mm/hr 0.00 in0.0 mm
04:46 AM 38.5°F3.6°C 38.0°F3.3°C 98% 2.4 mph NW3.9 kmh NW 3.8 mph6.1 kmh 29.56 in1001.0 mb 0.00 in0.0 mm 0.00 in/hr0.0 mm/hr 0.00 in0.0 mm
04:45 AM 38.5°F3.6°C 38.0°F3.3°C 98% 2.5 mph NW4.0 kmh NW 3.8 mph6.1 kmh 29.56 in1001.0 mb 0.00 in0.0 mm 0.00 in/hr0.0 mm/hr 0.00 in0.0 mm
04:44 AM 38.5°F3.6°C 38.0°F3.3°C 98% 2.5 mph NW4.0 kmh NW 3.8 mph6.1 kmh 29.56 in1001.0 mb 0.00 in0.0 mm 0.00 in/hr0.0 mm/hr 0.00 in0.0 mm
04:43 AM 38.5°F3.6°C 38.0°F3.3°C 98% 2.6 mph NW4.2 kmh NW 3.8 mph6.1 kmh 29.56 in1001.0 mb 0.00 in0.0 mm 0.00 in/hr0.0 mm/hr 0.00 in0.0 mm
04:42 AM 38.5°F3.6°C 38.0°F3.3°C 98% 2.6 mph NW4.2 kmh NW 3.8 mph6.1 kmh 29.56 in1001.0 mb 0.00 in0.0 mm 0.00 in/hr0.0 mm/hr 0.00 in0.0 mm
04:41 AM 38.5°F3.6°C 38.0°F3.3°C 98% 2.6 mph NNW4.2 kmh NNW 3.8 mph6.1 kmh 29.56 in1001.0 mb 0.00 in0.0 mm 0.00 in/hr0.0 mm/hr 0.00 in0.0 mm
04:40 AM 38.5°F3.6°C 38.0°F3.3°C 98% 2.7 mph NNW4.3 kmh NNW 3.8 mph6.1 kmh 29.56 in1001.0 mb 0.00 in0.0 mm 0.00 in/hr0.0 mm/hr 0.00 in0.0 mm
04:39 AM 38.5°F3.6°C 38.0°F3.3°C 98% 2.7 mph NNW4.3 kmh NNW 3.8 mph6.1 kmh 29.56 in1001.0 mb 0.00 in0.0 mm 0.00 in/hr0.0 mm/hr 0.00 in0.0 mm
04:38 AM 38.5°F3.6°C 38.0°F3.3°C 98% 2.7 mph NNW4.3 kmh NNW 3.8 mph6.1 kmh 29.57 in1001.4 mb 0.00 in0.0 mm 0.00 in/hr0.0 mm/hr 0.00 in0.0 mm
04:37 AM 38.5°F3.6°C 38.0°F3.3°C 98% 2.6 mph NNW4.2 kmh NNW 3.8 mph6.1 kmh 29.56 in1001.0 mb 0.00 in0.0 mm 0.00 in/hr0.0 mm/hr 0.00 in0.0 mm
04:36 AM 38.7°F3.7°C 38.1°F3.4°C 98% 2.5 mph N4.0 kmh N 3.8 mph6.1 kmh 29.56 in1001.0 mb 0.00 in0.0 mm 0.00 in/hr0.0 mm/hr 0.00 in0.0 mm
04:35 AM 38.7°F3.7°C 38.1°F3.4°C 98% 2.5 mph N4.0 kmh N 3.8 mph6.1 kmh 29.56 in1001.0 mb 0.00 in0.0 mm 0.00 in/hr0.0 mm/hr 0.00 in0.0 mm
04:34 AM 38.7°F3.7°C 37.9°F3.3°C 97% 2.5 mph NNW4.0 kmh NNW 3.8 mph6.1 kmh 29.56 in1001.0 mb 0.00 in0.0 mm 0.00 in/hr0.0 mm/hr 0.00 in0.0 mm
04:33 AM 38.7°F3.7°C 38.1°F3.4°C 98% 2.4 mph NNW3.9 kmh NNW 3.8 mph6.1 kmh 29.56 in1001.0 mb 0.00 in0.0 mm 0.00 in/hr0.0 mm/hr 0.00 in0.0 mm
04:32 AM 38.7°F3.7°C 38.1°F3.4°C 98% 2.6 mph NNW4.2 kmh NNW 3.8 mph6.1 kmh 29.56 in1001.0 mb 0.00 in0.0 mm 0.00 in/hr0.0 mm/hr 0.00 in0.0 mm
04:31 AM 38.7°F3.7°C 38.1°F3.4°C 98% 2.7 mph NNW4.3 kmh NNW 3.8 mph6.1 kmh 29.56 in1001.0 mb 0.00 in0.0 mm 0.00 in/hr0.0 mm/hr 0.00 in0.0 mm
04:30 AM 38.7°F3.7°C 37.9°F3.3°C 97% 2.8 mph NW4.5 kmh NW 3.8 mph6.1 kmh 29.56 in1001.0 mb 0.00 in0.0 mm 0.00 in/hr0.0 mm/hr 0.00 in0.0 mm
04:29 AM 38.8°F3.8°C 38.1°F3.4°C 97% 2.9 mph NW4.7 kmh NW 3.8 mph6.1 kmh 29.56 in1001.0 mb 0.00 in0.0 mm 0.00 in/hr0.0 mm/hr 0.00 in0.0 mm
04:28 AM 38.8°F3.8°C 38.1°F3.4°C 97% 2.7 mph NW4.3 kmh NW 3.8 mph6.1 kmh 29.56 in1001.0 mb 0.00 in0.0 mm 0.00 in/hr0.0 mm/hr 0.00 in0.0 mm
04:27 AM 38.8°F3.8°C 38.1°F3.4°C 97% 2.7 mph NW4.3 kmh NW 3.8 mph6.1 kmh 29.56 in1001.0 mb 0.00 in0.0 mm 0.00 in/hr0.0 mm/hr 0.00 in0.0 mm
04:26 AM 38.8°F3.8°C 38.1°F3.4°C 97% 2.7 mph NW4.3 kmh NW 3.8 mph6.1 kmh 29.56 in1001.0 mb 0.00 in0.0 mm 0.00 in/hr0.0 mm/hr 0.00 in0.0 mm
04:25 AM 38.8°F3.8°C 38.1°F3.4°C 97% 2.6 mph NW4.2 kmh NW 3.8 mph6.1 kmh 29.56 in1001.0 mb 0.00 in0.0 mm 0.00 in/hr0.0 mm/hr 0.00 in0.0 mm
04:24 AM 38.8°F3.8°C 38.1°F3.4°C 97% 2.5 mph NW4.0 kmh NW 3.8 mph6.1 kmh 29.56 in1001.0 mb 0.00 in0.0 mm 0.00 in/hr0.0 mm/hr 0.00 in0.0 mm
04:23 AM 38.8°F3.8°C 38.1°F3.4°C 97% 2.5 mph NW4.0 kmh NW 3.8 mph6.1 kmh 29.56 in1001.0 mb 0.00 in0.0 mm 0.00 in/hr0.0 mm/hr 0.00 in0.0 mm
04:22 AM 38.8°F3.8°C 38.1°F3.4°C 97% 2.4 mph NW3.9 kmh NW 3.8 mph6.1 kmh 29.56 in1001.0 mb 0.00 in0.0 mm 0.00 in/hr0.0 mm/hr 0.00 in0.0 mm
04:21 AM 38.8°F3.8°C 38.1°F3.4°C 97% 2.3 mph NW3.7 kmh NW 3.1 mph5.0 kmh 29.56 in1001.0 mb 0.00 in0.0 mm 0.00 in/hr0.0 mm/hr 0.00 in0.0 mm
04:20 AM 39.0°F3.9°C 38.2°F3.4°C 97% 2.3 mph NW3.7 kmh NW 3.1 mph5.0 kmh 29.56 in1001.0 mb 0.00 in0.0 mm 0.00 in/hr0.0 mm/hr 0.00 in0.0 mm
04:19 AM 39.0°F3.9°C 38.2°F3.4°C 97% 2.2 mph NW3.5 kmh NW 3.1 mph5.0 kmh 29.56 in1001.0 mb 0.00 in0.0 mm 0.00 in/hr0.0 mm/hr 0.00 in0.0 mm
04:18 AM 39.0°F3.9°C 38.2°F3.4°C 97% 2.2 mph NNW3.5 kmh NNW 3.1 mph5.0 kmh 29.56 in1001.0 mb 0.00 in0.0 mm 0.00 in/hr0.0 mm/hr 0.00 in0.0 mm
04:17 AM 39.0°F3.9°C 38.2°F3.4°C 97% 2.1 mph NNW3.4 kmh NNW 3.1 mph5.0 kmh 29.56 in1001.0 mb 0.00 in0.0 mm 0.00 in/hr0.0 mm/hr 0.00 in0.0 mm
04:16 AM 39.0°F3.9°C 38.2°F3.4°C 97% 2.2 mph NW3.5 kmh NW 3.1 mph5.0 kmh 29.56 in1001.0 mb 0.00 in0.0 mm 0.00 in/hr0.0 mm/hr 0.00 in0.0 mm
04:15 AM 39.0°F3.9°C 38.2°F3.4°C 97% 2.3 mph NW3.7 kmh NW 3.1 mph5.0 kmh 29.56 in1001.0 mb 0.00 in0.0 mm 0.00 in/hr0.0 mm/hr 0.00 in0.0 mm
04:14 AM 39.2°F4.0°C 38.4°F3.6°C 97% 2.5 mph NW4.0 kmh NW 4.5 mph7.2 kmh 29.56 in1001.0 mb 0.00 in0.0 mm 0.00 in/hr0.0 mm/hr 0.00 in0.0 mm
04:13 AM 39.2°F4.0°C 38.4°F3.6°C 97% 2.6 mph NW4.2 kmh NW 4.5 mph7.2 kmh 29.55 in1000.7 mb 0.00 in0.0 mm 0.00 in/hr0.0 mm/hr 0.00 in0.0 mm
04:12 AM 39.2°F4.0°C 38.4°F3.6°C 97% 2.7 mph NW4.3 kmh NW 4.5 mph7.2 kmh 29.56 in1001.0 mb 0.00 in0.0 mm 0.00 in/hr0.0 mm/hr 0.00 in0.0 mm
04:11 AM 39.2°F4.0°C 38.4°F3.6°C 97% 2.7 mph NNW4.3 kmh NNW 4.5 mph7.2 kmh 29.56 in1001.0 mb 0.00 in0.0 mm 0.00 in/hr0.0 mm/hr 0.00 in0.0 mm
04:10 AM 39.2°F4.0°C 38.4°F3.6°C 97% 2.7 mph NW4.3 kmh NW 4.5 mph7.2 kmh 29.56 in1001.0 mb 0.00 in0.0 mm 0.00 in/hr0.0 mm/hr 0.00 in0.0 mm
04:09 AM 39.2°F4.0°C 38.4°F3.6°C 97% 2.9 mph NW4.7 kmh NW 4.5 mph7.2 kmh 29.56 in1001.0 mb 0.00 in0.0 mm 0.00 in/hr0.0 mm/hr 0.00 in0.0 mm
04:08 AM 39.2°F4.0°C 38.4°F3.6°C 97% 3.2 mph NW5.1 kmh NW 4.5 mph7.2 kmh 29.55 in1000.7 mb 0.00 in0.0 mm 0.00 in/hr0.0 mm/hr 0.00 in0.0 mm
04:07 AM 39.2°F4.0°C 38.4°F3.6°C 97% 3.4 mph NW5.5 kmh NW 4.5 mph7.2 kmh 29.56 in1001.0 mb 0.00 in0.0 mm 0.00 in/hr0.0 mm/hr 0.00 in0.0 mm
04:06 AM 39.2°F4.0°C 38.4°F3.6°C 97% 3.4 mph NW5.5 kmh NW 4.5 mph7.2 kmh 29.56 in1001.0 mb 0.00 in0.0 mm 0.00 in/hr0.0 mm/hr 0.00 in0.0 mm
04:05 AM 39.2°F4.0°C 38.4°F3.6°C 97% 3.4 mph NW5.5 kmh NW 4.5 mph7.2 kmh 29.56 in1001.0 mb 0.00 in0.0 mm 0.00 in/hr0.0 mm/hr 0.00 in0.0 mm
04:04 AM 39.2°F4.0°C 38.4°F3.6°C 97% 3.4 mph NW5.5 kmh NW 4.5 mph7.2 kmh 29.56 in1001.0 mb 0.00 in0.0 mm 0.00 in/hr0.0 mm/hr 0.00 in0.0 mm
04:03 AM 39.2°F4.0°C 38.4°F3.6°C 97% 3.3 mph NW5.3 kmh NW 4.5 mph7.2 kmh 29.56 in1001.0 mb 0.00 in0.0 mm 0.00 in/hr0.0 mm/hr 0.00 in0.0 mm
04:02 AM 39.2°F4.0°C 38.4°F3.6°C 97% 3.1 mph NW5.0 kmh NW 4.5 mph7.2 kmh 29.56 in1001.0 mb 0.00 in0.0 mm 0.00 in/hr0.0 mm/hr 0.00 in0.0 mm
04:01 AM 39.2°F4.0°C 38.4°F3.6°C 97% 2.9 mph WNW4.7 kmh WNW 4.5 mph7.2 kmh 29.56 in1001.0 mb 0.00 in0.0 mm 0.00 in/hr0.0 mm/hr 0.00 in0.0 mm
04:00 AM 39.2°F4.0°C 38.4°F3.6°C 97% 2.9 mph NW4.7 kmh NW 4.5 mph7.2 kmh 29.56 in1001.0 mb 0.00 in0.0 mm 0.00 in/hr0.0 mm/hr 0.00 in0.0 mm
03:59 AM 39.2°F4.0°C 38.2°F3.4°C 96% 2.8 mph NW4.5 kmh NW 4.5 mph7.2 kmh 29.56 in1001.0 mb 0.00 in0.0 mm 0.00 in/hr0.0 mm/hr 0.00 in0.0 mm
03:58 AM 39.2°F4.0°C 38.2°F3.4°C 96% 2.7 mph NW4.3 kmh NW 4.5 mph7.2 kmh 29.56 in1001.0 mb 0.00 in0.0 mm 0.00 in/hr0.0 mm/hr 0.00 in0.0 mm
03:57 AM 39.4°F4.1°C 38.3°F3.5°C 96% 2.5 mph NW4.0 kmh NW 3.8 mph6.1 kmh 29.56 in1001.0 mb 0.00 in0.0 mm 0.00 in/hr0.0 mm/hr 0.00 in0.0 mm
03:56 AM 39.4°F4.1°C 38.3°F3.5°C 96% 2.3 mph NW3.7 kmh NW 3.1 mph5.0 kmh 29.57 in1001.4 mb 0.00 in0.0 mm 0.00 in/hr0.0 mm/hr 0.00 in0.0 mm
03:55 AM 39.4°F4.1°C 38.3°F3.5°C 96% 2.2 mph NNW3.5 kmh NNW 3.1 mph5.0 kmh 29.56 in1001.0 mb 0.00 in0.0 mm 0.00 in/hr0.0 mm/hr 0.00 in0.0 mm
03:54 AM 39.4°F4.1°C 38.3°F3.5°C 96% 2.2 mph NNW3.5 kmh NNW 3.8 mph6.1 kmh 29.56 in1001.0 mb 0.00 in0.0 mm 0.00 in/hr0.0 mm/hr 0.00 in0.0 mm
03:53 AM 39.4°F4.1°C 38.3°F3.5°C 96% 2.3 mph NNW3.7 kmh NNW 3.8 mph6.1 kmh 29.56 in1001.0 mb 0.00 in0.0 mm 0.00 in/hr0.0 mm/hr 0.00 in0.0 mm
03:52 AM 39.4°F4.1°C 38.3°F3.5°C 96% 2.5 mph N4.0 kmh N 3.8 mph6.1 kmh 29.56 in1001.0 mb 0.00 in0.0 mm 0.00 in/hr0.0 mm/hr 0.00 in0.0 mm
03:51 AM 39.4°F4.1°C 38.3°F3.5°C 96% 2.6 mph N4.2 kmh N 3.8 mph6.1 kmh 29.56 in1001.0 mb 0.00 in0.0 mm 0.00 in/hr0.0 mm/hr 0.00 in0.0 mm
03:50 AM 39.4°F4.1°C 38.3°F3.5°C 96% 2.6 mph N4.2 kmh N 3.8 mph6.1 kmh 29.57 in1001.4 mb 0.00 in0.0 mm 0.00 in/hr0.0 mm/hr 0.00 in0.0 mm
03:49 AM 39.6°F4.2°C 38.5°F3.6°C 96% 2.5 mph N4.0 kmh N 3.8 mph6.1 kmh 29.56 in1001.0 mb 0.00 in0.0 mm 0.00 in/hr0.0 mm/hr 0.00 in0.0 mm
03:48 AM 39.6°F4.2°C 38.5°F3.6°C 96% 2.5 mph N4.0 kmh N 3.8 mph6.1 kmh 29.56 in1001.0 mb 0.00 in0.0 mm 0.00 in/hr0.0 mm/hr 0.00 in0.0 mm
03:47 AM 39.6°F4.2°C 38.5°F3.6°C 96% 2.5 mph N4.0 kmh N 3.8 mph6.1 kmh 29.56 in1001.0 mb 0.00 in0.0 mm 0.00 in/hr0.0 mm/hr 0.00 in0.0 mm
03:46 AM 39.6°F4.2°C 38.5°F3.6°C 96% 2.6 mph NNE4.2 kmh NNE 3.8 mph6.1 kmh 29.56 in1001.0 mb 0.00 in0.0 mm 0.00 in/hr0.0 mm/hr 0.00 in0.0 mm
03:45 AM 39.6°F4.2°C 38.5°F3.6°C 96% 2.5 mph NNE4.0 kmh NNE 3.8 mph6.1 kmh 29.56 in1001.0 mb 0.00 in0.0 mm 0.00 in/hr0.0 mm/hr 0.00 in0.0 mm
03:44 AM 39.6°F4.2°C 38.5°F3.6°C 96% 2.4 mph NNE3.9 kmh NNE 3.8 mph6.1 kmh 29.56 in1001.0 mb 0.00 in0.0 mm 0.00 in/hr0.0 mm/hr 0.00 in0.0 mm
03:43 AM 39.6°F4.2°C 38.5°F3.6°C 96% 2.3 mph NNE3.7 kmh NNE 3.1 mph5.0 kmh 29.56 in1001.0 mb 0.00 in0.0 mm 0.00 in/hr0.0 mm/hr 0.00 in0.0 mm
03:42 AM 39.6°F4.2°C 38.5°F3.6°C 96% 2.2 mph NNE3.5 kmh NNE 3.1 mph5.0 kmh 29.56 in1001.0 mb 0.00 in0.0 mm 0.00 in/hr0.0 mm/hr 0.00 in0.0 mm
03:41 AM 39.7°F4.3°C 38.4°F3.6°C 95% 2.1 mph N3.4 kmh N 3.1 mph5.0 kmh 29.56 in1001.0 mb 0.00 in0.0 mm 0.00 in/hr0.0 mm/hr 0.00 in0.0 mm
03:40 AM 39.7°F4.3°C 38.7°F3.7°C 96% 2.1 mph N3.4 kmh N 2.2 mph3.5 kmh 29.56 in1001.0 mb 0.00 in0.0 mm 0.00 in/hr0.0 mm/hr 0.00 in0.0 mm
03:39 AM 39.7°F4.3°C 38.4°F3.6°C 95% 2.1 mph N3.4 kmh N 3.1 mph5.0 kmh 29.56 in1001.0 mb 0.00 in0.0 mm 0.00 in/hr0.0 mm/hr 0.00 in0.0 mm
03:38 AM 39.7°F4.3°C 38.4°F3.6°C 95% 2.2 mph N3.5 kmh N 3.1 mph5.0 kmh 29.56 in1001.0 mb 0.00 in0.0 mm 0.00 in/hr0.0 mm/hr 0.00 in0.0 mm
03:37 AM 39.7°F4.3°C 38.7°F3.7°C 96% 2.2 mph N3.5 kmh N 3.1 mph5.0 kmh 29.57 in1001.4 mb 0.00 in0.0 mm 0.00 in/hr0.0 mm/hr 0.00 in0.0 mm
03:36 AM 39.9°F4.4°C 38.6°F3.7°C 95% 2.1 mph N3.4 kmh N 3.1 mph5.0 kmh 29.56 in1001.0 mb 0.00 in0.0 mm 0.00 in/hr0.0 mm/hr 0.00 in0.0 mm
03:35 AM 39.9°F4.4°C 38.6°F3.7°C 95% 2.2 mph N3.5 kmh N 3.1 mph5.0 kmh 29.57 in1001.4 mb 0.00 in0.0 mm 0.00 in/hr0.0 mm/hr 0.00 in0.0 mm
03:34 AM 39.9°F4.4°C 38.9°F3.8°C 96% 2.2 mph N3.5 kmh N 3.1 mph5.0 kmh 29.57 in1001.4 mb 0.00 in0.0 mm 0.00 in/hr0.0 mm/hr 0.00 in0.0 mm
03:33 AM 39.9°F4.4°C 38.9°F3.8°C 96% 2.4 mph NNW3.9 kmh NNW 4.5 mph7.2 kmh 29.57 in1001.4 mb 0.00 in0.0 mm 0.00 in/hr0.0 mm/hr 0.00 in0.0 mm
03:32 AM 39.9°F4.4°C 38.6°F3.7°C 95% 2.8 mph NNW4.5 kmh NNW 6.0 mph9.7 kmh 29.57 in1001.4 mb 0.00 in0.0 mm 0.00 in/hr0.0 mm/hr 0.00 in0.0 mm
03:31 AM 39.9°F4.4°C 38.6°F3.7°C 95% 2.9 mph NW4.7 kmh NW 6.0 mph9.7 kmh 29.57 in1001.4 mb 0.00 in0.0 mm 0.00 in/hr0.0 mm/hr 0.00 in0.0 mm
03:30 AM 40.1°F4.5°C 38.8°F3.8°C 95% 3.0 mph NW4.8 kmh NW 6.0 mph9.7 kmh 29.57 in1001.4 mb 0.00 in0.0 mm 0.00 in/hr0.0 mm/hr 0.00 in0.0 mm
03:29 AM 40.1°F4.5°C 39.1°F3.9°C 96% 3.3 mph NW5.3 kmh NW 6.0 mph9.7 kmh 29.56 in1001.0 mb 0.00 in0.0 mm 0.00 in/hr0.0 mm/hr 0.00 in0.0 mm
03:28 AM 40.1°F4.5°C 38.8°F3.8°C 95% 3.5 mph NW5.6 kmh NW 6.0 mph9.7 kmh 29.57 in1001.4 mb 0.00 in0.0 mm 0.00 in/hr0.0 mm/hr 0.00 in0.0 mm
03:27 AM 40.1°F4.5°C 38.8°F3.8°C 95% 3.8 mph NW6.1 kmh NW 6.0 mph9.7 kmh 29.57 in1001.4 mb 0.00 in0.0 mm 0.00 in/hr0.0 mm/hr 0.00 in0.0 mm
03:26 AM 40.1°F4.5°C 38.8°F3.8°C 95% 4.1 mph NW6.6 kmh NW 6.0 mph9.7 kmh 29.57 in1001.4 mb 0.00 in0.0 mm 0.00 in/hr0.0 mm/hr 0.00 in0.0 mm
03:25 AM 40.1°F4.5°C 38.8°F3.8°C 95% 4.2 mph NW6.8 kmh NW 6.0 mph9.7 kmh 29.57 in1001.4 mb 0.00 in0.0 mm 0.00 in/hr0.0 mm/hr 0.00 in0.0 mm
03:24 AM 40.1°F4.5°C 38.8°F3.8°C 95% 4.2 mph NW6.8 kmh NW 6.0 mph9.7 kmh 29.57 in1001.4 mb 0.00 in0.0 mm 0.00 in/hr0.0 mm/hr 0.00 in0.0 mm
03:23 AM 40.1°F4.5°C 38.8°F3.8°C 95% 4.1 mph NW6.6 kmh NW 6.0 mph9.7 kmh 29.57 in1001.4 mb 0.00 in0.0 mm 0.00 in/hr0.0 mm/hr 0.00 in0.0 mm
03:22 AM 40.3°F4.6°C 39.0°F3.9°C 95% 4.0 mph NW6.4 kmh NW 6.0 mph9.7 kmh 29.57 in1001.4 mb 0.00 in0.0 mm 0.00 in/hr0.0 mm/hr 0.00 in0.0 mm
03:21 AM 40.3°F4.6°C 39.0°F3.9°C 95% 4.0 mph NW6.4 kmh NW 6.0 mph9.7 kmh 29.57 in1001.4 mb 0.00 in0.0 mm 0.00 in/hr0.0 mm/hr 0.00 in0.0 mm
03:20 AM 40.3°F4.6°C 39.0°F3.9°C 95% 4.0 mph NW6.4 kmh NW 6.0 mph9.7 kmh 29.57 in1001.4 mb 0.00 in0.0 mm 0.00 in/hr0.0 mm/hr 0.00 in0.0 mm
03:19 AM 40.3°F4.6°C 39.0°F3.9°C 95% 3.7 mph NW6.0 kmh NW 6.0 mph9.7 kmh 29.57 in1001.4 mb 0.00 in0.0 mm 0.00 in/hr0.0 mm/hr 0.00 in0.0 mm
03:18 AM 40.3°F4.6°C 39.0°F3.9°C 95% 3.5 mph NW5.6 kmh NW 5.4 mph8.7 kmh 29.57 in1001.4 mb 0.00 in0.0 mm 0.00 in/hr0.0 mm/hr 0.00 in0.0 mm
03:17 AM 40.3°F4.6°C 39.0°F3.9°C 95% 3.4 mph NW5.5 kmh NW 5.4 mph8.7 kmh 29.57 in1001.4 mb 0.00 in0.0 mm 0.00 in/hr0.0 mm/hr 0.00 in0.0 mm
03:16 AM 40.3°F4.6°C 39.0°F3.9°C 95% 3.2 mph NW5.1 kmh NW 4.5 mph7.2 kmh 29.57 in1001.4 mb 0.00 in0.0 mm 0.00 in/hr0.0 mm/hr 0.00 in0.0 mm
03:15 AM 40.3°F4.6°C 39.0°F3.9°C 95% 3.3 mph NW5.3 kmh NW 4.5 mph7.2 kmh 29.57 in1001.4 mb 0.00 in0.0 mm 0.00 in/hr0.0 mm/hr 0.00 in0.0 mm
03:14 AM 40.3°F4.6°C 39.0°F3.9°C 95% 3.4 mph NW5.5 kmh NW 5.4 mph8.7 kmh 29.57 in1001.4 mb 0.00 in0.0 mm 0.00 in/hr0.0 mm/hr 0.00 in0.0 mm
03:13 AM 40.5°F4.7°C 39.1°F3.9°C 95% 3.6 mph NW5.8 kmh NW 5.4 mph8.7 kmh 29.57 in1001.4 mb 0.00 in0.0 mm 0.00 in/hr0.0 mm/hr 0.00 in0.0 mm
03:12 AM 40.5°F4.7°C 39.1°F3.9°C 95% 3.6 mph NW5.8 kmh NW 5.4 mph8.7 kmh 29.57 in1001.4 mb 0.00 in0.0 mm 0.00 in/hr0.0 mm/hr 0.00 in0.0 mm
03:11 AM 40.5°F4.7°C 39.1°F3.9°C 95% 3.7 mph NW6.0 kmh NW 5.4 mph8.7 kmh 29.57 in1001.4 mb 0.00 in0.0 mm 0.00 in/hr0.0 mm/hr 0.00 in0.0 mm
03:10 AM 40.5°F4.7°C 39.1°F3.9°C 95% 3.8 mph NW6.1 kmh NW 5.4 mph8.7 kmh 29.57 in1001.4 mb 0.00 in0.0 mm 0.00 in/hr0.0 mm/hr 0.00 in0.0 mm
03:09 AM 40.5°F4.7°C 39.1°F3.9°C 95% 3.9 mph NW6.3 kmh NW 5.4 mph8.7 kmh 29.57 in1001.4 mb 0.00 in0.0 mm 0.00 in/hr0.0 mm/hr 0.00 in0.0 mm
03:08 AM 40.5°F4.7°C 39.1°F3.9°C 95% 3.9 mph NW6.3 kmh NW 5.4 mph8.7 kmh 29.57 in1001.4 mb 0.00 in0.0 mm 0.00 in/hr0.0 mm/hr 0.00 in0.0 mm
03:07 AM 40.5°F4.7°C 39.1°F3.9°C 95% 3.7 mph NW6.0 kmh NW 5.4 mph8.7 kmh 29.57 in1001.4 mb 0.00 in0.0 mm 0.00 in/hr0.0 mm/hr 0.00 in0.0 mm
03:06 AM 40.5°F4.7°C 39.1°F3.9°C 95% 3.8 mph NW6.1 kmh NW 5.4 mph8.7 kmh 29.57 in1001.4 mb 0.00 in0.0 mm 0.00 in/hr0.0 mm/hr 0.00 in0.0 mm
03:05 AM 40.5°F4.7°C 39.1°F3.9°C 95% 3.8 mph NW6.1 kmh NW 5.4 mph8.7 kmh 29.57 in1001.4 mb 0.00 in0.0 mm 0.00 in/hr0.0 mm/hr 0.00 in0.0 mm
03:04 AM 40.5°F4.7°C 39.1°F3.9°C 95% 3.7 mph NW6.0 kmh NW 5.4 mph8.7 kmh 29.57 in1001.4 mb 0.00 in0.0 mm 0.00 in/hr0.0 mm/hr 0.00 in0.0 mm
03:03 AM 40.5°F4.7°C 38.9°F3.8°C 94% 3.5 mph NW5.6 kmh NW 5.4 mph8.7 kmh 29.57 in1001.4 mb 0.00 in0.0 mm 0.00 in/hr0.0 mm/hr 0.00 in0.0 mm
03:02 AM 40.6°F4.8°C 39.1°F3.9°C 94% 3.4 mph NW5.5 kmh NW 5.4 mph8.7 kmh 29.57 in1001.4 mb 0.00 in0.0 mm 0.00 in/hr0.0 mm/hr 0.00 in0.0 mm
03:01 AM 40.6°F4.8°C 39.1°F3.9°C 94% 3.3 mph NW5.3 kmh NW 4.5 mph7.2 kmh 29.57 in1001.4 mb 0.00 in0.0 mm 0.00 in/hr0.0 mm/hr 0.00 in0.0 mm
03:00 AM 40.6°F4.8°C 39.1°F3.9°C 94% 3.3 mph NW5.3 kmh NW 4.5 mph7.2 kmh 29.57 in1001.4 mb 0.00 in0.0 mm 0.00 in/hr0.0 mm/hr 0.00 in0.0 mm
02:59 AM 40.6°F4.8°C 39.1°F3.9°C 94% 3.5 mph NW5.6 kmh NW 6.0 mph9.7 kmh 29.57 in1001.4 mb 0.00 in0.0 mm 0.00 in/hr0.0 mm/hr 0.00 in0.0 mm
02:58 AM 40.6°F4.8°C 39.1°F3.9°C 94% 3.7 mph NW6.0 kmh NW 6.0 mph9.7 kmh 29.57 in1001.4 mb 0.00 in0.0 mm 0.00 in/hr0.0 mm/hr 0.00 in0.0 mm
02:57 AM 40.6°F4.8°C 39.1°F3.9°C 94% 3.9 mph NW6.3 kmh NW 6.0 mph9.7 kmh 29.57 in1001.4 mb 0.00 in0.0 mm 0.00 in/hr0.0 mm/hr 0.00 in0.0 mm
02:56 AM 40.6°F4.8°C 39.1°F3.9°C 94% 4.1 mph NW6.6 kmh NW 6.0 mph9.7 kmh 29.57 in1001.4 mb 0.00 in0.0 mm 0.00 in/hr0.0 mm/hr 0.00 in0.0 mm
02:55 AM 40.6°F4.8°C 39.1°F3.9°C 94% 4.1 mph NW6.6 kmh NW 6.0 mph9.7 kmh 29.57 in1001.4 mb 0.00 in0.0 mm 0.00 in/hr0.0 mm/hr 0.00 in0.0 mm
02:54 AM 40.6°F4.8°C 39.1°F3.9°C 94% 4.2 mph NW6.8 kmh NW 6.0 mph9.7 kmh 29.57 in1001.4 mb 0.00 in0.0 mm 0.00 in/hr0.0 mm/hr 0.00 in0.0 mm
02:53 AM 40.6°F4.8°C 39.1°F3.9°C 94% 4.3 mph NW6.9 kmh NW 6.0 mph9.7 kmh 29.57 in1001.4 mb 0.00 in0.0 mm 0.00 in/hr0.0 mm/hr 0.00 in0.0 mm
02:52 AM 40.6°F4.8°C 39.1°F3.9°C 94% 4.4 mph NW7.1 kmh NW 6.0 mph9.7 kmh 29.57 in1001.4 mb 0.00 in0.0 mm 0.00 in/hr0.0 mm/hr 0.00 in0.0 mm
02:51 AM 40.6°F4.8°C 39.1°F3.9°C 94% 4.4 mph NW7.1 kmh NW 6.0 mph9.7 kmh 29.57 in1001.4 mb 0.00 in0.0 mm 0.00 in/hr0.0 mm/hr 0.00 in0.0 mm
02:50 AM 40.6°F4.8°C 39.1°F3.9°C 94% 4.3 mph NW6.9 kmh NW 6.0 mph9.7 kmh 29.57 in1001.4 mb 0.00 in0.0 mm 0.00 in/hr0.0 mm/hr 0.00 in0.0 mm
02:49 AM 40.6°F4.8°C 39.1°F3.9°C 94% 4.1 mph NW6.6 kmh NW 6.0 mph9.7 kmh 29.57 in1001.4 mb 0.00 in0.0 mm 0.00 in/hr0.0 mm/hr 0.00 in0.0 mm
02:48 AM 40.8°F4.9°C 39.2°F4.0°C 94% 3.9 mph NW6.3 kmh NW 6.0 mph9.7 kmh 29.57 in1001.4 mb 0.00 in0.0 mm 0.00 in/hr0.0 mm/hr 0.00 in0.0 mm
02:47 AM 40.6°F4.8°C 39.1°F3.9°C 94% 3.8 mph NW6.1 kmh NW 6.0 mph9.7 kmh 29.57 in1001.4 mb 0.00 in0.0 mm 0.00 in/hr0.0 mm/hr 0.00 in0.0 mm
02:46 AM 40.6°F4.8°C 38.8°F3.8°C 93% 3.6 mph NW5.8 kmh NW 4.5 mph7.2 kmh 29.57 in1001.4 mb 0.00 in0.0 mm 0.00 in/hr0.0 mm/hr 0.00 in0.0 mm
02:45 AM 40.8°F4.9°C 39.0°F3.9°C 93% 3.4 mph NW5.5 kmh NW 4.5 mph7.2 kmh 29.57 in1001.4 mb 0.00 in0.0 mm 0.00 in/hr0.0 mm/hr 0.00 in0.0 mm
02:44 AM 40.8°F4.9°C 39.0°F3.9°C 93% 3.4 mph NW5.5 kmh NW 4.5 mph7.2 kmh 29.57 in1001.4 mb 0.00 in0.0 mm 0.00 in/hr0.0 mm/hr 0.00 in0.0 mm
02:43 AM 40.8°F4.9°C 39.0°F3.9°C 93% 3.3 mph NW5.3 kmh NW 4.5 mph7.2 kmh 29.57 in1001.4 mb 0.00 in0.0 mm 0.00 in/hr0.0 mm/hr 0.00 in0.0 mm
02:42 AM 40.8°F4.9°C 39.0°F3.9°C 93% 3.3 mph NW5.3 kmh NW 4.5 mph7.2 kmh 29.57 in1001.4 mb 0.00 in0.0 mm 0.00 in/hr0.0 mm/hr 0.00 in0.0 mm
02:41 AM 40.8°F4.9°C 39.0°F3.9°C 93% 3.1 mph NW5.0 kmh NW 4.5 mph7.2 kmh 29.57 in1001.4 mb 0.00 in0.0 mm 0.00 in/hr0.0 mm/hr 0.00 in0.0 mm
02:40 AM 40.8°F4.9°C 39.0°F3.9°C 93% 3.3 mph NW5.3 kmh NW 4.5 mph7.2 kmh 29.57 in1001.4 mb 0.00 in0.0 mm 0.00 in/hr0.0 mm/hr 0.00 in0.0 mm
02:39 AM 41.0°F5.0°C 39.1°F3.9°C 93% 3.3 mph NW5.3 kmh NW 4.5 mph7.2 kmh 29.57 in1001.4 mb 0.00 in0.0 mm 0.00 in/hr0.0 mm/hr 0.00 in0.0 mm
02:38 AM 40.8°F4.9°C 39.0°F3.9°C 93% 3.3 mph NW5.3 kmh NW 4.5 mph7.2 kmh 29.57 in1001.4 mb 0.00 in0.0 mm 0.00 in/hr0.0 mm/hr 0.00 in0.0 mm
02:37 AM 41.0°F5.0°C 39.1°F3.9°C 93% 3.3 mph NW5.3 kmh NW 4.5 mph7.2 kmh 29.57 in1001.4 mb 0.00 in0.0 mm 0.00 in/hr0.0 mm/hr 0.00 in0.0 mm
02:36 AM 41.0°F5.0°C 39.1°F3.9°C 93% 3.3 mph NW5.3 kmh NW 4.5 mph7.2 kmh 29.57 in1001.4 mb 0.00 in0.0 mm 0.00 in/hr0.0 mm/hr 0.00 in0.0 mm
02:35 AM 41.0°F5.0°C 39.1°F3.9°C 93% 3.5 mph NW5.6 kmh NW 4.5 mph7.2 kmh 29.57 in1001.4 mb 0.00 in0.0 mm 0.00 in/hr0.0 mm/hr 0.00 in0.0 mm
02:34 AM 41.0°F5.0°C 39.1°F3.9°C 93% 3.5 mph NNW5.6 kmh NNW 4.5 mph7.2 kmh 29.57 in1001.4 mb 0.00 in0.0 mm 0.00 in/hr0.0 mm/hr 0.00 in0.0 mm
02:33 AM 41.0°F5.0°C 39.1°F3.9°C 93% 3.4 mph NNW5.5 kmh NNW 4.5 mph7.2 kmh 29.57 in1001.4 mb 0.00 in0.0 mm 0.00 in/hr0.0 mm/hr 0.00 in0.0 mm
02:32 AM 41.2°F5.1°C 39.3°F4.1°C 93% 3.2 mph NNW5.1 kmh NNW 4.5 mph7.2 kmh 29.57 in1001.4 mb 0.00 in0.0 mm 0.00 in/hr0.0 mm/hr 0.00 in0.0 mm
02:31 AM 41.2°F5.1°C 39.3°F4.1°C 93% 3.1 mph NNW5.0 kmh NNW 4.5 mph7.2 kmh 29.57 in1001.4 mb 0.00 in0.0 mm 0.00 in/hr0.0 mm/hr 0.00 in0.0 mm
02:30 AM 41.2°F5.1°C 39.3°F4.1°C 93% 2.8 mph N4.5 kmh N 4.5 mph7.2 kmh 29.57 in1001.4 mb 0.00 in0.0 mm 0.00 in/hr0.0 mm/hr 0.00 in0.0 mm
02:29 AM 41.2°F5.1°C 39.3°F4.1°C 93% 2.8 mph N4.5 kmh N 4.5 mph7.2 kmh 29.57 in1001.4 mb 0.00 in0.0 mm 0.00 in/hr0.0 mm/hr 0.00 in0.0 mm
02:28 AM 41.2°F5.1°C 39.3°F4.1°C 93% 2.8 mph N4.5 kmh N 4.5 mph7.2 kmh 29.58 in1001.7 mb 0.00 in0.0 mm 0.00 in/hr0.0 mm/hr 0.00 in0.0 mm
02:27 AM 41.4°F5.2°C 39.5°F4.2°C 93% 2.8 mph NNW4.5 kmh NNW 4.5 mph7.2 kmh 29.58 in1001.7 mb 0.00 in0.0 mm 0.00 in/hr0.0 mm/hr 0.00 in0.0 mm
02:26 AM 41.4°F5.2°C 39.5°F4.2°C 93% 2.8 mph NNW4.5 kmh NNW 4.5 mph7.2 kmh 29.58 in1001.7 mb 0.00 in0.0 mm 0.00 in/hr0.0 mm/hr 0.00 in0.0 mm
02:25 AM 41.4°F5.2°C 39.5°F4.2°C 93% 2.8 mph NNW4.5 kmh NNW 4.5 mph7.2 kmh 29.57 in1001.4 mb 0.00 in0.0 mm 0.00 in/hr0.0 mm/hr 0.00 in0.0 mm
02:24 AM 41.4°F5.2°C 39.5°F4.2°C 93% 2.7 mph NNW4.3 kmh NNW 3.8 mph6.1 kmh 29.58 in1001.7 mb 0.00 in0.0 mm 0.00 in/hr0.0 mm/hr 0.00 in0.0 mm
02:23 AM 41.4°F5.2°C 39.5°F4.2°C 93% 2.9 mph NNW4.7 kmh NNW 6.0 mph9.7 kmh 29.58 in1001.7 mb 0.00 in0.0 mm 0.00 in/hr0.0 mm/hr 0.00 in0.0 mm
02:22 AM 41.5°F5.3°C 39.7°F4.3°C 93% 3.2 mph NW5.1 kmh NW 6.0 mph9.7 kmh 29.58 in1001.7 mb 0.00 in0.0 mm 0.00 in/hr0.0 mm/hr 0.00 in0.0 mm
02:21 AM 41.5°F5.3°C 39.7°F4.3°C 93% 3.4 mph NW5.5 kmh NW 6.0 mph9.7 kmh 29.58 in1001.7 mb 0.00 in0.0 mm 0.00 in/hr0.0 mm/hr 0.00 in0.0 mm
02:20 AM 41.5°F5.3°C 39.7°F4.3°C 93% 3.7 mph NNW6.0 kmh NNW 6.0 mph9.7 kmh 29.58 in1001.7 mb 0.00 in0.0 mm 0.00 in/hr0.0 mm/hr 0.00 in0.0 mm
02:19 AM 41.5°F5.3°C 39.7°F4.3°C 93% 3.8 mph NW6.1 kmh NW 6.0 mph9.7 kmh 29.58 in1001.7 mb 0.00 in0.0 mm 0.00 in/hr0.0 mm/hr 0.00 in0.0 mm
02:18 AM 41.5°F5.3°C 39.7°F4.3°C 93% 3.9 mph NW6.3 kmh NW 6.0 mph9.7 kmh 29.58 in1001.7 mb 0.00 in0.0 mm 0.00 in/hr0.0 mm/hr 0.00 in0.0 mm
02:17 AM 41.5°F5.3°C 39.7°F4.3°C 93% 4.1 mph NW6.6 kmh NW 6.0 mph9.7 kmh 29.58 in1001.7 mb 0.00 in0.0 mm 0.00 in/hr0.0 mm/hr 0.00 in0.0 mm
02:16 AM 41.5°F5.3°C 39.7°F4.3°C 93% 4.3 mph NW6.9 kmh NW 7.6 mph12.2 kmh 29.58 in1001.7 mb 0.00 in0.0 mm 0.00 in/hr0.0 mm/hr 0.00 in0.0 mm
02:15 AM 41.7°F5.4°C 39.8°F4.3°C 93% 4.6 mph NW7.4 kmh NW 7.6 mph12.2 kmh 29.58 in1001.7 mb 0.00 in0.0 mm 0.00 in/hr0.0 mm/hr 0.00 in0.0 mm
02:14 AM 41.7°F5.4°C 39.8°F4.3°C 93% 4.7 mph NW7.6 kmh NW 7.6 mph12.2 kmh 29.58 in1001.7 mb 0.00 in0.0 mm 0.00 in/hr0.0 mm/hr 0.00 in0.0 mm
02:13 AM 41.7°F5.4°C 39.8°F4.3°C 93% 4.7 mph NW7.6 kmh NW 7.6 mph12.2 kmh 29.58 in1001.7 mb 0.00 in0.0 mm 0.00 in/hr0.0 mm/hr 0.00 in0.0 mm
02:12 AM 41.7°F5.4°C 39.8°F4.3°C 93% 4.9 mph NW7.9 kmh NW 7.6 mph12.2 kmh 29.58 in1001.7 mb 0.00 in0.0 mm 0.00 in/hr0.0 mm/hr 0.00 in0.0 mm
02:11 AM 41.7°F5.4°C 39.8°F4.3°C 93% 5.1 mph NW8.2 kmh NW 7.6 mph12.2 kmh 29.58 in1001.7 mb 0.00 in0.0 mm 0.00 in/hr0.0 mm/hr 0.00 in0.0 mm
02:10 AM 41.7°F5.4°C 39.8°F4.3°C 93% 5.3 mph NW8.5 kmh NW 7.6 mph12.2 kmh 29.58 in1001.7 mb 0.00 in0.0 mm 0.00 in/hr0.0 mm/hr 0.00 in0.0 mm
02:09 AM 41.7°F5.4°C 39.8°F4.3°C 93% 5.4 mph WNW8.7 kmh WNW 7.6 mph12.2 kmh 29.58 in1001.7 mb 0.00 in0.0 mm 0.00 in/hr0.0 mm/hr 0.00 in0.0 mm
02:08 AM 41.7°F5.4°C 39.8°F4.3°C 93% 5.7 mph NW9.2 kmh NW 7.6 mph12.2 kmh 29.58 in1001.7 mb 0.00 in0.0 mm 0.00 in/hr0.0 mm/hr 0.00 in0.0 mm
02:07 AM 41.7°F5.4°C 39.8°F4.3°C 93% 5.9 mph WNW9.5 kmh WNW 7.6 mph12.2 kmh 29.59 in1002.0 mb 0.00 in0.0 mm 0.00 in/hr0.0 mm/hr 0.00 in0.0 mm
02:06 AM 41.7°F5.4°C 39.8°F4.3°C 93% 6.0 mph WNW9.7 kmh WNW 7.6 mph12.2 kmh 29.58 in1001.7 mb 0.00 in0.0 mm 0.00 in/hr0.0 mm/hr 0.00 in0.0 mm
02:05 AM 41.7°F5.4°C 39.8°F4.3°C 93% 6.0 mph NW9.7 kmh NW 7.6 mph12.2 kmh 29.58 in1001.7 mb 0.00 in0.0 mm 0.00 in/hr0.0 mm/hr 0.00 in0.0 mm
02:04 AM 41.7°F5.4°C 39.8°F4.3°C 93% 6.3 mph NW10.1 kmh NW 7.6 mph12.2 kmh 29.58 in1001.7 mb 0.00 in0.0 mm 0.00 in/hr0.0 mm/hr 0.00 in0.0 mm
02:03 AM 41.7°F5.4°C 39.8°F4.3°C 93% 6.5 mph NW10.5 kmh NW 7.6 mph12.2 kmh 29.58 in1001.7 mb 0.00 in0.0 mm 0.00 in/hr0.0 mm/hr 0.00 in0.0 mm
02:02 AM 41.7°F5.4°C 39.8°F4.3°C 93% 6.4 mph NW10.3 kmh NW 7.6 mph12.2 kmh 29.58 in1001.7 mb 0.00 in0.0 mm 0.00 in/hr0.0 mm/hr 0.00 in0.0 mm
02:01 AM 41.7°F5.4°C 39.8°F4.3°C 93% 6.3 mph NW10.1 kmh NW 7.6 mph12.2 kmh 29.58 in1001.7 mb 0.00 in0.0 mm 0.00 in/hr0.0 mm/hr 0.00 in0.0 mm
02:00 AM 41.7°F5.4°C 39.6°F4.2°C 92% 6.2 mph NW10.0 kmh NW 7.6 mph12.2 kmh 29.58 in1001.7 mb 0.00 in0.0 mm 0.00 in/hr0.0 mm/hr 0.00 in0.0 mm
01:59 AM 41.7°F5.4°C 39.6°F4.2°C 92% 6.0 mph NW9.7 kmh NW 7.6 mph12.2 kmh 29.58 in1001.7 mb 0.00 in0.0 mm 0.00 in/hr0.0 mm/hr 0.00 in0.0 mm
01:58 AM 41.7°F5.4°C 39.6°F4.2°C 92% 5.9 mph NW9.5 kmh NW 7.6 mph12.2 kmh 29.58 in1001.7 mb 0.00 in0.0 mm 0.00 in/hr0.0 mm/hr 0.00 in0.0 mm
01:57 AM 41.9°F5.5°C 39.7°F4.3°C 92% 5.7 mph NW9.2 kmh NW 7.6 mph12.2 kmh 29.58 in1001.7 mb 0.00 in0.0 mm 0.00 in/hr0.0 mm/hr 0.00 in0.0 mm
01:56 AM 41.9°F5.5°C 39.7°F4.3°C 92% 5.6 mph NW9.0 kmh NW 7.6 mph12.2 kmh 29.58 in1001.7 mb 0.00 in0.0 mm 0.00 in/hr0.0 mm/hr 0.00 in0.0 mm
01:55 AM 41.9°F5.5°C 39.7°F4.3°C 92% 5.3 mph NW8.5 kmh NW 7.6 mph12.2 kmh 29.59 in1002.0 mb 0.00 in0.0 mm 0.00 in/hr0.0 mm/hr 0.00 in0.0 mm
01:54 AM 41.9°F5.5°C 39.7°F4.3°C 92% 5.1 mph NW8.2 kmh NW 7.6 mph12.2 kmh 29.58 in1001.7 mb 0.00 in0.0 mm 0.00 in/hr0.0 mm/hr 0.00 in0.0 mm
01:53 AM 41.9°F5.5°C 39.7°F4.3°C 92% 5.0 mph NW8.0 kmh NW 7.6 mph12.2 kmh 29.59 in1002.0 mb 0.00 in0.0 mm 0.00 in/hr0.0 mm/hr 0.00 in0.0 mm
01:52 AM 41.9°F5.5°C 39.7°F4.3°C 92% 4.9 mph NW7.9 kmh NW 7.6 mph12.2 kmh 29.59 in1002.0 mb 0.00 in0.0 mm 0.00 in/hr0.0 mm/hr 0.00 in0.0 mm
01:51 AM 41.9°F5.5°C 39.7°F4.3°C 92% 4.8 mph NW7.7 kmh NW 7.6 mph12.2 kmh 29.59 in1002.0 mb 0.00 in0.0 mm 0.00 in/hr0.0 mm/hr 0.00 in0.0 mm
01:50 AM 42.1°F5.6°C 39.9°F4.4°C 92% 4.9 mph NW7.9 kmh NW 7.6 mph12.2 kmh 29.59 in1002.0 mb 0.00 in0.0 mm 0.00 in/hr0.0 mm/hr 0.00 in0.0 mm
01:49 AM 42.1°F5.6°C 39.9°F4.4°C 92% 4.9 mph NW7.9 kmh NW 7.6 mph12.2 kmh 29.58 in1001.7 mb 0.00 in0.0 mm 0.00 in/hr0.0 mm/hr 0.00 in0.0 mm
01:48 AM 42.1°F5.6°C 39.9°F4.4°C 92% 4.8 mph NW7.7 kmh NW 7.6 mph12.2 kmh 29.59 in1002.0 mb 0.00 in0.0 mm 0.00 in/hr0.0 mm/hr 0.00 in0.0 mm
01:47 AM 42.1°F5.6°C 39.9°F4.4°C 92% 4.8 mph NW7.7 kmh NW 6.0 mph9.7 kmh 29.59 in1002.0 mb 0.00 in0.0 mm 0.00 in/hr0.0 mm/hr 0.00 in0.0 mm
01:46 AM 42.1°F5.6°C 39.9°F4.4°C 92% 4.6 mph NNW7.4 kmh NNW 6.0 mph9.7 kmh 29.58 in1001.7 mb 0.00 in0.0 mm 0.00 in/hr0.0 mm/hr 0.00 in0.0 mm
01:45 AM 42.1°F5.6°C 39.9°F4.4°C 92% 4.5 mph NW7.2 kmh NW 6.0 mph9.7 kmh 29.58 in1001.7 mb 0.00 in0.0 mm 0.00 in/hr0.0 mm/hr 0.00 in0.0 mm
01:44 AM 42.1°F5.6°C 39.9°F4.4°C 92% 4.6 mph NNW7.4 kmh NNW 6.0 mph9.7 kmh 29.59 in1002.0 mb 0.00 in0.0 mm 0.00 in/hr0.0 mm/hr 0.00 in0.0 mm
01:43 AM 42.1°F5.6°C 39.9°F4.4°C 92% 4.7 mph NNW7.6 kmh NNW 7.6 mph12.2 kmh 29.59 in1002.0 mb 0.00 in0.0 mm 0.00 in/hr0.0 mm/hr 0.00 in0.0 mm
01:42 AM 42.3°F5.7°C 40.1°F4.5°C 92% 5.0 mph NNW8.0 kmh NNW 7.6 mph12.2 kmh 29.59 in1002.0 mb 0.00 in0.0 mm 0.00 in/hr0.0 mm/hr 0.00 in0.0 mm
01:41 AM 42.3°F5.7°C 40.1°F4.5°C 92% 5.1 mph NNW8.2 kmh NNW 7.6 mph12.2 kmh 29.58 in1001.7 mb 0.00 in0.0 mm 0.00 in/hr0.0 mm/hr 0.00 in0.0 mm
01:40 AM 42.3°F5.7°C 40.1°F4.5°C 92% 5.4 mph NW8.7 kmh NW 9.2 mph14.8 kmh 29.58 in1001.7 mb 0.00 in0.0 mm 0.00 in/hr0.0 mm/hr 0.00 in0.0 mm
01:39 AM 42.3°F5.7°C 40.1°F4.5°C 92% 5.8 mph NW9.3 kmh NW 9.2 mph14.8 kmh 29.58 in1001.7 mb 0.00 in0.0 mm 0.00 in/hr0.0 mm/hr 0.00 in0.0 mm
01:38 AM 42.3°F5.7°C 40.1°F4.5°C 92% 6.0 mph NW9.7 kmh NW 9.2 mph14.8 kmh 29.58 in1001.7 mb 0.00 in0.0 mm 0.00 in/hr0.0 mm/hr 0.00 in0.0 mm
01:37 AM 42.3°F5.7°C 40.1°F4.5°C 92% 6.5 mph NW10.5 kmh NW 9.2 mph14.8 kmh 29.59 in1002.0 mb 0.00 in0.0 mm 0.00 in/hr0.0 mm/hr 0.00 in0.0 mm
01:36 AM 42.4°F5.8°C 40.3°F4.6°C 92% 6.7 mph NW10.8 kmh NW 9.2 mph14.8 kmh 29.58 in1001.7 mb 0.00 in0.0 mm 0.00 in/hr0.0 mm/hr 0.00 in0.0 mm
01:35 AM 42.4°F5.8°C 40.3°F4.6°C 92% 6.8 mph NW10.9 kmh NW 9.2 mph14.8 kmh 29.59 in1002.0 mb 0.00 in0.0 mm 0.00 in/hr0.0 mm/hr 0.00 in0.0 mm
01:34 AM 42.4°F5.8°C 40.3°F4.6°C 92% 6.8 mph NW10.9 kmh NW 9.2 mph14.8 kmh 29.58 in1001.7 mb 0.00 in0.0 mm 0.00 in/hr0.0 mm/hr 0.00 in0.0 mm
01:33 AM 42.4°F5.8°C 40.3°F4.6°C 92% 7.0 mph NW11.3 kmh NW 9.2 mph14.8 kmh 29.58 in1001.7 mb 0.00 in0.0 mm 0.00 in/hr0.0 mm/hr 0.00 in0.0 mm
01:32 AM 42.4°F5.8°C 40.3°F4.6°C 92% 7.0 mph NW11.3 kmh NW 9.2 mph14.8 kmh 29.59 in1002.0 mb 0.00 in0.0 mm 0.00 in/hr0.0 mm/hr 0.00 in0.0 mm
01:31 AM 42.4°F5.8°C 40.3°F4.6°C 92% 7.0 mph WNW11.3 kmh WNW 9.2 mph14.8 kmh 29.58 in1001.7 mb 0.00 in0.0 mm 0.00 in/hr0.0 mm/hr 0.00 in0.0 mm
01:30 AM 42.4°F5.8°C 40.3°F4.6°C 92% 7.0 mph WNW11.3 kmh WNW 9.2 mph14.8 kmh 29.58 in1001.7 mb 0.00 in0.0 mm 0.00 in/hr0.0 mm/hr 0.00 in0.0 mm
01:29 AM 42.4°F5.8°C 40.3°F4.6°C 92% 7.1 mph WNW11.4 kmh WNW 9.8 mph15.8 kmh 29.58 in1001.7 mb 0.00 in0.0 mm 0.00 in/hr0.0 mm/hr 0.00 in0.0 mm
01:28 AM 42.4°F5.8°C 40.3°F4.6°C 92% 7.1 mph WNW11.4 kmh WNW 9.8 mph15.8 kmh 29.58 in1001.7 mb 0.00 in0.0 mm 0.00 in/hr0.0 mm/hr 0.00 in0.0 mm
01:27 AM 42.4°F5.8°C 40.3°F4.6°C 92% 7.0 mph WNW11.3 kmh WNW 9.8 mph15.8 kmh 29.58 in1001.7 mb 0.00 in0.0 mm 0.00 in/hr0.0 mm/hr 0.00 in0.0 mm
01:26 AM 42.4°F5.8°C 40.3°F4.6°C 92% 7.2 mph WNW11.6 kmh WNW 9.8 mph15.8 kmh 29.58 in1001.7 mb 0.00 in0.0 mm 0.00 in/hr0.0 mm/hr 0.00 in0.0 mm
01:25 AM 42.4°F5.8°C 40.3°F4.6°C 92% 7.2 mph WNW11.6 kmh WNW 9.8 mph15.8 kmh 29.59 in1002.0 mb 0.00 in0.0 mm 0.00 in/hr0.0 mm/hr 0.00 in0.0 mm
01:24 AM 42.4°F5.8°C 40.3°F4.6°C 92% 7.4 mph WNW11.9 kmh WNW 9.8 mph15.8 kmh 29.59 in1002.0 mb 0.00 in0.0 mm 0.00 in/hr0.0 mm/hr 0.00 in0.0 mm
01:23 AM 42.4°F5.8°C 40.3°F4.6°C 92% 7.2 mph WNW11.6 kmh WNW 9.8 mph15.8 kmh 29.59 in1002.0 mb 0.00 in0.0 mm 0.00 in/hr0.0 mm/hr 0.00 in0.0 mm
01:22 AM 42.4°F5.8°C 40.3°F4.6°C 92% 7.1 mph WNW11.4 kmh WNW 9.8 mph15.8 kmh 29.59 in1002.0 mb 0.00 in0.0 mm 0.00 in/hr0.0 mm/hr 0.00 in0.0 mm
01:21 AM 42.4°F5.8°C 40.0°F4.4°C 91% 7.0 mph NW11.3 kmh NW 9.8 mph15.8 kmh 29.59 in1002.0 mb 0.00 in0.0 mm 0.00 in/hr0.0 mm/hr 0.00 in0.0 mm
01:20 AM 42.4°F5.8°C 40.0°F4.4°C 91% 6.5 mph WNW10.5 kmh WNW 9.8 mph15.8 kmh 29.59 in1002.0 mb 0.00 in0.0 mm 0.00 in/hr0.0 mm/hr 0.00 in0.0 mm
01:19 AM 42.4°F5.8°C 40.0°F4.4°C 91% 6.4 mph WNW10.3 kmh WNW 9.8 mph15.8 kmh 29.59 in1002.0 mb 0.00 in0.0 mm 0.00 in/hr0.0 mm/hr 0.00 in0.0 mm
01:18 AM 42.4°F5.8°C 40.0°F4.4°C 91% 6.3 mph NW10.1 kmh NW 8.3 mph13.4 kmh 29.59 in1002.0 mb 0.00 in0.0 mm 0.00 in/hr0.0 mm/hr 0.00 in0.0 mm
01:17 AM 42.4°F5.8°C 40.0°F4.4°C 91% 6.2 mph NW10.0 kmh NW 8.3 mph13.4 kmh 29.59 in1002.0 mb 0.00 in0.0 mm 0.00 in/hr0.0 mm/hr 0.00 in0.0 mm
01:16 AM 42.4°F5.8°C 40.0°F4.4°C 91% 6.2 mph NW10.0 kmh NW 8.3 mph13.4 kmh 29.59 in1002.0 mb 0.00 in0.0 mm 0.00 in/hr0.0 mm/hr 0.00 in0.0 mm
01:15 AM 42.4°F5.8°C 40.0°F4.4°C 91% 6.7 mph NW10.8 kmh NW 9.2 mph14.8 kmh 29.59 in1002.0 mb 0.00 in0.0 mm 0.00 in/hr0.0 mm/hr 0.00 in0.0 mm
01:14 AM 42.4°F5.8°C 40.0°F4.4°C 91% 6.9 mph NW11.1 kmh NW 9.2 mph14.8 kmh 29.59 in1002.0 mb 0.00 in0.0 mm 0.00 in/hr0.0 mm/hr 0.00 in0.0 mm
01:13 AM 42.6°F5.9°C 40.2°F4.6°C 91% 7.1 mph NW11.4 kmh NW 9.2 mph14.8 kmh 29.59 in1002.0 mb 0.00 in0.0 mm 0.00 in/hr0.0 mm/hr 0.00 in0.0 mm
01:12 AM 42.6°F5.9°C 40.2°F4.6°C 91% 7.2 mph NW11.6 kmh NW 9.2 mph14.8 kmh 29.59 in1002.0 mb 0.00 in0.0 mm 0.00 in/hr0.0 mm/hr 0.00 in0.0 mm
01:11 AM 42.6°F5.9°C 40.2°F4.6°C 91% 7.4 mph NW11.9 kmh NW 9.2 mph14.8 kmh 29.59 in1002.0 mb 0.00 in0.0 mm 0.00 in/hr0.0 mm/hr 0.00 in0.0 mm
01:10 AM 42.6°F5.9°C 40.2°F4.6°C 91% 7.8 mph NW12.6 kmh NW 9.8 mph15.8 kmh 29.59 in1002.0 mb 0.00 in0.0 mm 0.00 in/hr0.0 mm/hr 0.00 in0.0 mm
01:09 AM 42.6°F5.9°C 40.2°F4.6°C 91% 7.9 mph NW12.7 kmh NW 9.8 mph15.8 kmh 29.58 in1001.7 mb 0.00 in0.0 mm 0.00 in/hr0.0 mm/hr 0.00 in0.0 mm
01:08 AM 42.6°F5.9°C 40.2°F4.6°C 91% 7.8 mph NW12.6 kmh NW 9.8 mph15.8 kmh 29.58 in1001.7 mb 0.00 in0.0 mm 0.00 in/hr0.0 mm/hr 0.00 in0.0 mm
01:07 AM 42.6°F5.9°C 40.2°F4.6°C 91% 7.9 mph NW12.7 kmh NW 9.8 mph15.8 kmh 29.58 in1001.7 mb 0.00 in0.0 mm 0.00 in/hr0.0 mm/hr 0.00 in0.0 mm
01:06 AM 42.6°F5.9°C 39.9°F4.4°C 90% 7.9 mph NW12.7 kmh NW 9.8 mph15.8 kmh 29.59 in1002.0 mb 0.00 in0.0 mm 0.00 in/hr0.0 mm/hr 0.00 in0.0 mm
01:05 AM 42.6°F5.9°C 39.9°F4.4°C 90% 7.6 mph NW12.2 kmh NW 9.8 mph15.8 kmh 29.59 in1002.0 mb 0.00 in0.0 mm 0.00 in/hr0.0 mm/hr 0.00 in0.0 mm
01:04 AM 42.6°F5.9°C 39.9°F4.4°C 90% 7.3 mph NW11.7 kmh NW 9.8 mph15.8 kmh 29.59 in1002.0 mb 0.00 in0.0 mm 0.00 in/hr0.0 mm/hr 0.00 in0.0 mm
01:03 AM 42.6°F5.9°C 39.9°F4.4°C 90% 6.7 mph NW10.8 kmh NW 9.8 mph15.8 kmh 29.59 in1002.0 mb 0.00 in0.0 mm 0.00 in/hr0.0 mm/hr 0.00 in0.0 mm
01:02 AM 42.6°F5.9°C 39.9°F4.4°C 90% 6.4 mph NW10.3 kmh NW 9.8 mph15.8 kmh 29.59 in1002.0 mb 0.00 in0.0 mm 0.00 in/hr0.0 mm/hr 0.00 in0.0 mm
01:01 AM 42.6°F5.9°C 39.9°F4.4°C 90% 6.3 mph NW10.1 kmh NW 9.8 mph15.8 kmh 29.59 in1002.0 mb 0.00 in0.0 mm 0.00 in/hr0.0 mm/hr 0.00 in0.0 mm
01:00 AM 42.6°F5.9°C 39.9°F4.4°C 90% 6.2 mph NW10.0 kmh NW 9.8 mph15.8 kmh 29.59 in1002.0 mb 0.00 in0.0 mm 0.00 in/hr0.0 mm/hr 0.00 in0.0 mm
12:59 AM 42.6°F5.9°C 39.9°F4.4°C 90% 5.7 mph NW9.2 kmh NW 9.2 mph14.8 kmh 29.59 in1002.0 mb 0.00 in0.0 mm 0.00 in/hr0.0 mm/hr 0.00 in0.0 mm
12:58 AM 42.8°F6.0°C 40.1°F4.5°C 90% 5.8 mph NW9.3 kmh NW 9.2 mph14.8 kmh 29.59 in1002.0 mb 0.00 in0.0 mm 0.00 in/hr0.0 mm/hr 0.00 in0.0 mm
12:57 AM 42.8°F6.0°C 39.8°F4.3°C 89% 5.6 mph NW9.0 kmh NW 9.2 mph14.8 kmh 29.59 in1002.0 mb 0.00 in0.0 mm 0.00 in/hr0.0 mm/hr 0.00 in0.0 mm
12:56 AM 42.8°F6.0°C 40.1°F4.5°C 90% 5.5 mph NW8.9 kmh NW 9.2 mph14.8 kmh 29.59 in1002.0 mb 0.00 in0.0 mm 0.00 in/hr0.0 mm/hr 0.00 in0.0 mm
12:55 AM 42.8°F6.0°C 39.8°F4.3°C 89% 5.2 mph NW8.4 kmh NW 9.2 mph14.8 kmh 29.59 in1002.0 mb 0.00 in0.0 mm 0.00 in/hr0.0 mm/hr 0.00 in0.0 mm
12:54 AM 42.8°F6.0°C 39.8°F4.3°C 89% 5.3 mph NW8.5 kmh NW 9.2 mph14.8 kmh 29.59 in1002.0 mb 0.00 in0.0 mm 0.00 in/hr0.0 mm/hr 0.00 in0.0 mm
12:53 AM 42.8°F6.0°C 39.8°F4.3°C 89% 5.6 mph NW9.0 kmh NW 9.2 mph14.8 kmh 29.59 in1002.0 mb 0.00 in0.0 mm 0.00 in/hr0.0 mm/hr 0.00 in0.0 mm
12:52 AM 42.8°F6.0°C 39.8°F4.3°C 89% 6.0 mph NW9.7 kmh NW 9.2 mph14.8 kmh 29.59 in1002.0 mb 0.00 in0.0 mm 0.00 in/hr0.0 mm/hr 0.00 in0.0 mm
12:51 AM 43.0°F6.1°C 40.0°F4.4°C 89% 6.0 mph NW9.7 kmh NW 9.2 mph14.8 kmh 29.59 in1002.0 mb 0.00 in0.0 mm 0.00 in/hr0.0 mm/hr 0.00 in0.0 mm
12:50 AM 43.0°F6.1°C 40.0°F4.4°C 89% 5.8 mph NW9.3 kmh NW 9.2 mph14.8 kmh 29.59 in1002.0 mb 0.00 in0.0 mm 0.00 in/hr0.0 mm/hr 0.00 in0.0 mm
12:49 AM 43.0°F6.1°C 40.0°F4.4°C 89% 5.8 mph NW9.3 kmh NW 9.2 mph14.8 kmh 29.59 in1002.0 mb 0.00 in0.0 mm 0.00 in/hr0.0 mm/hr 0.00 in0.0 mm
12:48 AM 43.0°F6.1°C 40.0°F4.4°C 89% 5.6 mph NNW9.0 kmh NNW 8.3 mph13.4 kmh 29.59 in1002.0 mb 0.00 in0.0 mm 0.00 in/hr0.0 mm/hr 0.00 in0.0 mm
12:47 AM 43.0°F6.1°C 40.0°F4.4°C 89% 5.6 mph NNW9.0 kmh NNW 8.3 mph13.4 kmh 29.59 in1002.0 mb 0.00 in0.0 mm 0.00 in/hr0.0 mm/hr 0.00 in0.0 mm
12:46 AM 43.2°F6.2°C 40.1°F4.5°C 89% 5.4 mph N8.7 kmh N 8.3 mph13.4 kmh 29.59 in1002.0 mb 0.00 in0.0 mm 0.00 in/hr0.0 mm/hr 0.00 in0.0 mm
12:45 AM 43.2°F6.2°C 40.1°F4.5°C 89% 5.4 mph N8.7 kmh N 8.3 mph13.4 kmh 29.59 in1002.0 mb 0.00 in0.0 mm 0.00 in/hr0.0 mm/hr 0.00 in0.0 mm
12:44 AM 43.2°F6.2°C 39.9°F4.4°C 88% 5.2 mph N8.4 kmh N 8.3 mph13.4 kmh 29.59 in1002.0 mb 0.00 in0.0 mm 0.00 in/hr0.0 mm/hr 0.00 in0.0 mm
12:43 AM 43.2°F6.2°C 39.9°F4.4°C 88% 4.9 mph N7.9 kmh N 8.3 mph13.4 kmh 29.59 in1002.0 mb 0.00 in0.0 mm 0.00 in/hr0.0 mm/hr 0.00 in0.0 mm
12:42 AM 43.2°F6.2°C 39.9°F4.4°C 88% 4.6 mph N7.4 kmh N 7.6 mph12.2 kmh 29.59 in1002.0 mb 0.00 in0.0 mm 0.00 in/hr0.0 mm/hr 0.00 in0.0 mm
12:41 AM 43.2°F6.2°C 39.9°F4.4°C 88% 4.4 mph N7.1 kmh N 6.0 mph9.7 kmh 29.59 in1002.0 mb 0.00 in0.0 mm 0.00 in/hr0.0 mm/hr 0.00 in0.0 mm
12:40 AM 43.2°F6.2°C 39.9°F4.4°C 88% 4.4 mph N7.1 kmh N 6.0 mph9.7 kmh 29.59 in1002.0 mb 0.00 in0.0 mm 0.00 in/hr0.0 mm/hr 0.00 in0.0 mm
12:39 AM 43.3°F6.3°C 40.0°F4.4°C 88% 4.3 mph N6.9 kmh N 6.0 mph9.7 kmh 29.59 in1002.0 mb 0.00 in0.0 mm 0.00 in/hr0.0 mm/hr 0.00 in0.0 mm
12:38 AM 43.3°F6.3°C 40.0°F4.4°C 88% 4.2 mph N6.8 kmh N 6.0 mph9.7 kmh 29.59 in1002.0 mb 0.00 in0.0 mm 0.00 in/hr0.0 mm/hr 0.00 in0.0 mm
12:37 AM 43.3°F6.3°C 40.0°F4.4°C 88% 4.1 mph NNW6.6 kmh NNW 5.4 mph8.7 kmh 29.59 in1002.0 mb 0.00 in0.0 mm 0.00 in/hr0.0 mm/hr 0.00 in0.0 mm
12:36 AM 43.3°F6.3°C 40.0°F4.4°C 88% 4.2 mph NNW6.8 kmh NNW 5.4 mph8.7 kmh 29.59 in1002.0 mb 0.00 in0.0 mm 0.00 in/hr0.0 mm/hr 0.00 in0.0 mm
12:35 AM 43.3°F6.3°C 40.0°F4.4°C 88% 4.2 mph NNW6.8 kmh NNW 5.4 mph8.7 kmh 29.59 in1002.0 mb 0.00 in0.0 mm 0.00 in/hr0.0 mm/hr 0.00 in0.0 mm
12:34 AM 43.3°F6.3°C 40.0°F4.4°C 88% 4.2 mph NW6.8 kmh NW 5.4 mph8.7 kmh 29.59 in1002.0 mb 0.00 in0.0 mm 0.00 in/hr0.0 mm/hr 0.00 in0.0 mm
12:33 AM 43.3°F6.3°C 40.0°F4.4°C 88% 4.3 mph NW6.9 kmh NW 5.4 mph8.7 kmh 29.59 in1002.0 mb 0.00 in0.0 mm 0.00 in/hr0.0 mm/hr 0.00 in0.0 mm
12:32 AM 43.5°F6.4°C 40.2°F4.6°C 88% 4.3 mph NW6.9 kmh NW 5.4 mph8.7 kmh 29.59 in1002.0 mb 0.00 in0.0 mm 0.00 in/hr0.0 mm/hr 0.00 in0.0 mm
12:31 AM 43.5°F6.4°C 40.2°F4.6°C 88% 4.3 mph WNW6.9 kmh WNW 5.4 mph8.7 kmh 29.59 in1002.0 mb 0.00 in0.0 mm 0.00 in/hr0.0 mm/hr 0.00 in0.0 mm
12:30 AM 43.5°F6.4°C 40.2°F4.6°C 88% 4.2 mph WNW6.8 kmh WNW 5.4 mph8.7 kmh 29.59 in1002.0 mb 0.00 in0.0 mm 0.00 in/hr0.0 mm/hr 0.00 in0.0 mm
12:29 AM 43.5°F6.4°C 40.2°F4.6°C 88% 4.3 mph WNW6.9 kmh WNW 5.4 mph8.7 kmh 29.59 in1002.0 mb 0.00 in0.0 mm 0.00 in/hr0.0 mm/hr 0.00 in0.0 mm
12:28 AM 43.5°F6.4°C 40.2°F4.6°C 88% 4.2 mph WNW6.8 kmh WNW 5.4 mph8.7 kmh 29.59 in1002.0 mb 0.00 in0.0 mm 0.00 in/hr0.0 mm/hr 0.00 in0.0 mm
12:27 AM 43.5°F6.4°C 40.2°F4.6°C 88% 4.3 mph WNW6.9 kmh WNW 6.0 mph9.7 kmh 29.60 in1002.4 mb 0.00 in0.0 mm 0.00 in/hr0.0 mm/hr 0.00 in0.0 mm
12:26 AM 43.5°F6.4°C 40.2°F4.6°C 88% 4.4 mph WNW7.1 kmh WNW 6.9 mph11.1 kmh 29.60 in1002.4 mb 0.00 in0.0 mm 0.00 in/hr0.0 mm/hr 0.00 in0.0 mm
12:25 AM 43.7°F6.5°C 40.4°F4.7°C 88% 4.6 mph WNW7.4 kmh WNW 6.9 mph11.1 kmh 29.60 in1002.4 mb 0.00 in0.0 mm 0.00 in/hr0.0 mm/hr 0.00 in0.0 mm
12:24 AM 43.7°F6.5°C 40.4°F4.7°C 88% 4.7 mph WNW7.6 kmh WNW 6.9 mph11.1 kmh 29.60 in1002.4 mb 0.00 in0.0 mm 0.00 in/hr0.0 mm/hr 0.00 in0.0 mm
12:23 AM 43.7°F6.5°C 40.4°F4.7°C 88% 4.6 mph WNW7.4 kmh WNW 6.9 mph11.1 kmh 29.60 in1002.4 mb 0.00 in0.0 mm 0.00 in/hr0.0 mm/hr 0.00 in0.0 mm
12:22 AM 43.7°F6.5°C 40.1°F4.5°C 87% 4.4 mph NW7.1 kmh NW 6.9 mph11.1 kmh 29.60 in1002.4 mb 0.00 in0.0 mm 0.00 in/hr0.0 mm/hr 0.00 in0.0 mm
12:21 AM 43.7°F6.5°C 40.4°F4.7°C 88% 4.3 mph NW6.9 kmh NW 6.9 mph11.1 kmh 29.60 in1002.4 mb 0.00 in0.0 mm 0.00 in/hr0.0 mm/hr 0.00 in0.0 mm
12:20 AM 43.7°F6.5°C 40.4°F4.7°C 88% 4.5 mph WNW7.2 kmh WNW 6.9 mph11.1 kmh 29.60 in1002.4 mb 0.00 in0.0 mm 0.00 in/hr0.0 mm/hr 0.00 in0.0 mm
12:19 AM 43.7°F6.5°C 40.1°F4.5°C 87% 4.5 mph WNW7.2 kmh WNW 6.9 mph11.1 kmh 29.60 in1002.4 mb 0.00 in0.0 mm 0.00 in/hr0.0 mm/hr 0.00 in0.0 mm
12:18 AM 43.9°F6.6°C 40.3°F4.6°C 87% 4.6 mph NW7.4 kmh NW 6.9 mph11.1 kmh 29.60 in1002.4 mb 0.00 in0.0 mm 0.00 in/hr0.0 mm/hr 0.00 in0.0 mm
12:17 AM 43.9°F6.6°C 40.3°F4.6°C 87% 4.6 mph WNW7.4 kmh WNW 6.9 mph11.1 kmh 29.60 in1002.4 mb 0.00 in0.0 mm 0.00 in/hr0.0 mm/hr 0.00 in0.0 mm
12:16 AM 43.9°F6.6°C 40.3°F4.6°C 87% 4.7 mph WNW7.6 kmh WNW 6.9 mph11.1 kmh 29.60 in1002.4 mb 0.00 in0.0 mm 0.00 in/hr0.0 mm/hr 0.00 in0.0 mm
12:15 AM 43.9°F6.6°C 40.3°F4.6°C 87% 4.8 mph WNW7.7 kmh WNW 6.0 mph9.7 kmh 29.60 in1002.4 mb 0.00 in0.0 mm 0.00 in/hr0.0 mm/hr 0.00 in0.0 mm
12:14 AM 43.9°F6.6°C 40.3°F4.6°C 87% 4.7 mph WNW7.6 kmh WNW 6.0 mph9.7 kmh 29.60 in1002.4 mb 0.00 in0.0 mm 0.00 in/hr0.0 mm/hr 0.00 in0.0 mm
12:13 AM 43.9°F6.6°C 40.3°F4.6°C 87% 4.7 mph WNW7.6 kmh WNW 6.0 mph9.7 kmh 29.60 in1002.4 mb 0.00 in0.0 mm 0.00 in/hr0.0 mm/hr 0.00 in0.0 mm
12:12 AM 43.9°F6.6°C 40.3°F4.6°C 87% 4.8 mph WNW7.7 kmh WNW 6.0 mph9.7 kmh 29.60 in1002.4 mb 0.00 in0.0 mm 0.00 in/hr0.0 mm/hr 0.00 in0.0 mm
12:11 AM 43.9°F6.6°C 40.3°F4.6°C 87% 4.9 mph NW7.9 kmh NW 6.0 mph9.7 kmh 29.59 in1002.0 mb 0.00 in0.0 mm 0.00 in/hr0.0 mm/hr 0.00 in0.0 mm
12:10 AM 44.1°F6.7°C 40.4°F4.7°C 87% 4.8 mph NW7.7 kmh NW 6.0 mph9.7 kmh 29.60 in1002.4 mb 0.00 in0.0 mm 0.00 in/hr0.0 mm/hr 0.00 in0.0 mm
12:09 AM 44.1°F6.7°C 40.4°F4.7°C 87% 4.8 mph NW7.7 kmh NW 6.0 mph9.7 kmh 29.60 in1002.4 mb 0.00 in0.0 mm 0.00 in/hr0.0 mm/hr 0.00 in0.0 mm
12:08 AM 44.1°F6.7°C 40.4°F4.7°C 87% 4.9 mph NW7.9 kmh NW 6.9 mph11.1 kmh 29.60 in1002.4 mb 0.00 in0.0 mm 0.00 in/hr0.0 mm/hr 0.00 in0.0 mm
12:07 AM 44.1°F6.7°C 40.4°F4.7°C 87% 5.0 mph NW8.0 kmh NW 6.9 mph11.1 kmh 29.60 in1002.4 mb 0.00 in0.0 mm 0.00 in/hr0.0 mm/hr 0.00 in0.0 mm
12:06 AM 44.1°F6.7°C 40.4°F4.7°C 87% 5.0 mph WNW8.0 kmh WNW 6.9 mph11.1 kmh 29.60 in1002.4 mb 0.00 in0.0 mm 0.00 in/hr0.0 mm/hr 0.00 in0.0 mm
12:05 AM 44.1°F6.7°C 40.4°F4.7°C 87% 5.0 mph NW8.0 kmh NW 6.9 mph11.1 kmh 29.60 in1002.4 mb 0.00 in0.0 mm 0.00 in/hr0.0 mm/hr 0.00 in0.0 mm
12:04 AM 44.2°F6.8°C 40.6°F4.8°C 87% 5.2 mph NW8.4 kmh NW 6.9 mph11.1 kmh 29.60 in1002.4 mb 0.00 in0.0 mm 0.00 in/hr0.0 mm/hr 0.00 in0.0 mm
12:03 AM 44.1°F6.7°C 40.4°F4.7°C 87% 5.5 mph NW8.9 kmh NW 6.9 mph11.1 kmh 29.59 in1002.0 mb 0.00 in0.0 mm 0.00 in/hr0.0 mm/hr 0.00 in0.0 mm
12:02 AM 44.2°F6.8°C 40.6°F4.8°C 87% 5.7 mph NW9.2 kmh NW 6.9 mph11.1 kmh 29.60 in1002.4 mb 0.00 in0.0 mm 0.00 in/hr0.0 mm/hr 0.00 in0.0 mm
12:01 AM 44.2°F6.8°C 40.6°F4.8°C 87% 5.7 mph NW9.2 kmh NW 6.9 mph11.1 kmh 29.60 in1002.4 mb 0.00 in0.0 mm 0.00 in/hr0.0 mm/hr 0.00 in0.0 mm
12:00 AM 44.2°F6.8°C 40.6°F4.8°C 87% 5.8 mph NW9.3 kmh NW 6.9 mph11.1 kmh 29.60 in1002.4 mb 0.00 in0.0 mm 0.00 in/hr0.0 mm/hr 0.00 in0.0 mm